Data for 12/07/2009

Time Sea-Level Adjusted Pressure Absolute Pressure Temperature Relative Humidity Dew Point Precipitation   
(mb) (inHg) (mb) (inHg) (C) (F) (%) (C) (F) (mm) (in)
00:01 1020 30.12 849 25.07 -21.4 -6.4 71 -25.3 -13.5 -20.93 -0.824
00:02 1020 30.12 849 25.07 -21.4 -6.4 71 -25.3 -13.5 -20.92 -0.824
00:03 1020 30.12 849 25.07 -21.4 -6.4 71 -25.3 -13.5 -20.93 -0.824
00:04 1020 30.12 849 25.07 -21.4 -6.5 71 -25.3 -13.5 -20.94 -0.824
00:05 1020 30.12 849 25.07 -21.4 -6.5 71 -25.3 -13.5 -20.96 -0.825
00:06 1019 30.09 849 25.07 -21.4 -6.5 71 -25.3 -13.6 -20.96 -0.825
00:07 1020 30.12 849 25.07 -21.4 -6.5 71 -25.4 -13.7 -20.98 -0.826
00:08 1019 30.09 849 25.07 -21.4 -6.6 71 -25.4 -13.7 -21.01 -0.827
00:09 1019 30.09 849 25.07 -21.5 -6.6 71 -25.4 -13.8 -21.05 -0.829
00:10 1019 30.09 849 25.07 -21.5 -6.6 71 -25.5 -13.8 -21.04 -0.828
00:11 1019 30.09 849 25.07 -21.4 -6.6 71 -25.5 -13.8 -20.99 -0.826
00:12 1019 30.09 849 25.07 -21.4 -6.6 70 -25.5 -13.9 -20.99 -0.826
00:13 1019 30.09 849 25.07 -21.4 -6.6 70 -25.5 -13.9 -20.99 -0.826
00:14 1019 30.09 849 25.07 -21.4 -6.5 70 -25.5 -13.9 -20.97 -0.826
00:15 1019 30.09 849 25.07 -21.4 -6.5 70 -25.5 -13.9 -20.99 -0.826
00:16 1019 30.09 849 25.07 -21.4 -6.5 70 -25.5 -13.9 -20.99 -0.826
00:17 1019 30.09 849 25.07 -21.4 -6.5 70 -25.5 -13.9 -20.96 -0.825
00:18 1019 30.09 849 25.07 -21.4 -6.5 70 -25.5 -13.9 -20.98 -0.826
00:19 1019 30.09 849 25.07 -21.5 -6.6 70 -25.6 -14 -21 -0.827
00:20 1019 30.09 849 25.07 -21.4 -6.5 70 -25.5 -14 -20.99 -0.826
00:21 1019 30.09 849 25.07 -21.4 -6.6 70 -25.6 -14 -21.01 -0.827
00:22 1019 30.09 848 25.04 -21.4 -6.5 70 -25.6 -14 -20.97 -0.826
00:23 1019 30.09 848 25.04 -21.4 -6.6 70 -25.5 -14 -20.99 -0.826
00:24 1019 30.09 849 25.07 -21.5 -6.6 70 -25.5 -14 -20.99 -0.826
00:25 1019 30.09 848 25.04 -21.5 -6.6 70 -25.5 -13.9 -21.03 -0.828
00:26 1019 30.09 848 25.04 -21.4 -6.6 70 -25.6 -14 -21.02 -0.828
00:27 1019 30.09 848 25.04 -21.4 -6.6 70 -25.6 -14 -21.02 -0.828
00:28 1019 30.09 848 25.04 -21.4 -6.6 70 -25.6 -14 -21.01 -0.827
00:29 1019 30.09 848 25.04 -21.4 -6.6 70 -25.6 -14 -21.01 -0.827
00:30 1019 30.09 848 25.04 -21.4 -6.6 70 -25.6 -14 -21.01 -0.827
00:31 1019 30.09 848 25.04 -21.5 -6.6 70 -25.6 -14.1 -21.08 -0.83
00:32 1019 30.09 848 25.04 -21.5 -6.6 70 -25.6 -14.1 -21.08 -0.83
00:33 1019 30.09 848 25.04 -21.5 -6.7 70 -25.6 -14 -21.04 -0.828
00:34 1019 30.09 848 25.04 -21.5 -6.7 70 -25.6 -14.1 -21.08 -0.83
00:35 1019 30.09 848 25.04 -21.5 -6.7 70 -25.6 -14.1 -21.06 -0.829
00:36 1019 30.09 848 25.04 -21.5 -6.7 70 -25.7 -14.2 -21.04 -0.828
00:37 1019 30.09 848 25.04 -21.5 -6.6 69 -25.7 -14.2 -21.01 -0.827
00:38 1019 30.09 848 25.04 -21.5 -6.6 69 -25.7 -14.2 -21.03 -0.828
00:39 1019 30.09 848 25.04 -21.4 -6.6 69 -25.7 -14.3 -21 -0.827
00:40 1019 30.09 848 25.04 -21.4 -6.6 69 -25.7 -14.3 -20.98 -0.826
00:41 1019 30.09 848 25.04 -21.4 -6.6 69 -25.7 -14.2 -21.01 -0.827
00:42 1019 30.09 848 25.04 -21.5 -6.6 69 -25.7 -14.2 -21 -0.827
00:43 1019 30.09 848 25.04 -21.4 -6.6 69 -25.7 -14.2 -21.03 -0.828
00:44 1019 30.09 848 25.04 -21.5 -6.6 69 -25.7 -14.2 -21.05 -0.829
00:45 1019 30.09 848 25.04 -21.5 -6.6 69 -25.7 -14.3 -21.02 -0.828
00:46 1019 30.09 848 25.04 -21.5 -6.7 69 -25.7 -14.3 -21.05 -0.829
00:47 1019 30.09 848 25.04 -21.5 -6.6 69 -25.7 -14.3 -21.06 -0.829
00:48 1019 30.09 848 25.04 -21.5 -6.7 69 -25.7 -14.2 -21.08 -0.83
00:49 1019 30.09 848 25.04 -21.5 -6.7 70 -25.7 -14.2 -21.11 -0.831
00:50 1019 30.09 848 25.04 -21.5 -6.8 70 -25.6 -14.2 -21.08 -0.83
00:51 1019 30.09 848 25.04 -21.5 -6.8 70 -25.6 -14.1 -21.1 -0.831
00:52 1019 30.09 848 25.04 -21.5 -6.8 70 -25.6 -14.1 -21.08 -0.83
00:53 1019 30.09 848 25.04 -21.5 -6.7 70 -25.6 -14 -21.09 -0.83
00:54 1019 30.09 848 25.04 -21.5 -6.8 71 -25.6 -14 -21.12 -0.831
00:55 1019 30.09 848 25.04 -21.6 -6.9 71 -25.6 -14.1 -21.14 -0.832
00:56 1019 30.09 848 25.04 -21.6 -6.8 71 -25.5 -13.9 -21.19 -0.834
00:57 1019 30.09 848 25.04 -21.6 -6.9 71 -25.5 -13.9 -21.19 -0.834
00:58 1019 30.09 848 25.04 -21.6 -6.9 71 -25.5 -13.9 -21.16 -0.833
00:59 1019 30.09 848 25.04 -21.6 -6.8 71 -25.5 -13.9 -21.14 -0.832
01:00 1019 30.09 848 25.04 -21.6 -6.8 72 -25.4 -13.8 -21.19 -0.834
01:01 1019 30.09 848 25.04 -21.6 -6.9 71 -25.5 -13.9 -21.2 -0.835
01:02 1019 30.09 848 25.04 -21.6 -6.9 72 -25.5 -13.8 -21.17 -0.833
01:03 1019 30.09 848 25.04 -21.6 -7 72 -25.5 -13.9 -21.17 -0.833
01:04 1019 30.09 848 25.04 -21.7 -7 72 -25.5 -13.9 -21.23 -0.836
01:05 1019 30.09 848 25.04 -21.6 -6.9 71 -25.5 -13.9 -21.21 -0.835
01:06 1019 30.09 848 25.04 -21.6 -6.9 71 -25.5 -13.9 -21.24 -0.836
01:07 1019 30.09 848 25.04 -21.7 -7 72 -25.5 -13.9 -21.24 -0.836
01:08 1019 30.09 848 25.04 -21.6 -6.9 72 -25.5 -13.8 -21.24 -0.836
01:09 1019 30.09 848 25.04 -21.6 -6.9 72 -25.5 -13.8 -21.24 -0.836
01:10 1019 30.09 848 25.04 -21.7 -7 72 -25.5 -13.9 -21.26 -0.837
01:11 1019 30.09 848 25.04 -21.7 -7 72 -25.5 -13.9 -21.23 -0.836
01:12 1019 30.09 848 25.04 -21.7 -7 72 -25.5 -13.9 -21.24 -0.836
01:13 1019 30.09 848 25.04 -21.7 -7 72 -25.5 -14 -21.24 -0.836
01:14 1019 30.09 848 25.04 -21.7 -7 71 -25.5 -14 -21.25 -0.837
01:15 1019 30.09 848 25.04 -21.7 -7 71 -25.6 -14 -21.23 -0.836
01:16 1019 30.09 848 25.04 -21.7 -7 71 -25.6 -14.1 -21.23 -0.836
01:17 1019 30.09 848 25.04 -21.7 -7 71 -25.6 -14.1 -21.23 -0.836
01:18 1019 30.09 848 25.04 -21.7 -7 71 -25.6 -14.1 -21.24 -0.836
01:19 1019 30.09 848 25.04 -21.7 -7 71 -25.7 -14.2 -21.21 -0.835
01:20 1019 30.09 848 25.04 -21.6 -6.9 71 -25.6 -14.1 -21.23 -0.836
01:21 1019 30.09 848 25.04 -21.6 -6.9 70 -25.6 -14.1 -21.2 -0.835
01:22 1019 30.09 848 25.04 -21.6 -6.9 70 -25.7 -14.2 -21.17 -0.833
01:23 1019 30.09 848 25.04 -21.6 -6.9 70 -25.7 -14.2 -21.18 -0.834
01:24 1019 30.09 848 25.04 -21.6 -6.9 70 -25.7 -14.3 -21.2 -0.835
01:25 1019 30.09 848 25.04 -21.6 -6.9 70 -25.7 -14.2 -21.19 -0.834
01:26 1019 30.09 848 25.04 -21.6 -6.9 70 -25.7 -14.2 -21.18 -0.834
01:27 1019 30.09 848 25.04 -21.6 -6.9 70 -25.7 -14.2 -21.22 -0.835
01:28 1019 30.09 848 25.04 -21.7 -7 70 -25.7 -14.2 -21.26 -0.837
01:29 1019 30.09 848 25.04 -21.7 -7 71 -25.7 -14.3 -21.29 -0.838
01:30 1019 30.09 848 25.04 -21.7 -7.1 70 -25.7 -14.3 -21.26 -0.837
01:31 1019 30.09 848 25.04 -21.7 -7 70 -25.7 -14.3 -21.25 -0.837
01:32 1019 30.09 848 25.04 -21.7 -7 70 -25.7 -14.3 -21.24 -0.836
01:33 1019 30.09 848 25.04 -21.7 -7.1 71 -25.7 -14.3 -21.26 -0.837
01:34 1019 30.09 848 25.04 -21.7 -7 71 -25.7 -14.3 -21.25 -0.837
01:35 1019 30.09 848 25.04 -21.7 -7 70 -25.7 -14.3 -21.24 -0.836
01:36 1019 30.09 848 25.04 -21.7 -7 70 -25.7 -14.2 -21.21 -0.835
01:37 1019 30.09 848 25.04 -21.6 -6.9 70 -25.7 -14.2 -21.21 -0.835
01:38 1019 30.09 848 25.04 -21.6 -6.9 70 -25.7 -14.3 -21.21 -0.835
01:39 1019 30.09 848 25.04 -21.6 -6.9 70 -25.7 -14.3 -21.2 -0.835
01:40 1019 30.09 848 25.04 -21.6 -6.9 70 -25.7 -14.3 -21.2 -0.835
01:41 1019 30.09 848 25.04 -21.7 -7 70 -25.8 -14.4 -21.24 -0.836
01:42 1019 30.09 848 25.04 -21.7 -7 70 -25.8 -14.4 -21.22 -0.835
01:43 1019 30.09 848 25.04 -21.7 -7 70 -25.8 -14.5 -21.23 -0.836
01:44 1019 30.09 848 25.04 -21.7 -7 70 -25.8 -14.5 -21.23 -0.836
01:45 1019 30.09 848 25.04 -21.7 -7 70 -25.8 -14.5 -21.23 -0.836
01:46 1019 30.09 848 25.04 -21.7 -7 70 -25.8 -14.5 -21.26 -0.837
01:47 1019 30.09 848 25.04 -21.7 -7 69 -25.9 -14.6 -21.25 -0.837
01:48 1019 30.09 848 25.04 -21.7 -7 70 -25.8 -14.5 -21.25 -0.837
01:49 1019 30.09 848 25.04 -21.7 -7 70 -25.8 -14.5 -21.29 -0.838
01:50 1019 30.09 848 25.04 -21.7 -7.1 70 -25.9 -14.5 -21.32 -0.839
01:51 1019 30.09 848 25.04 -21.7 -7.1 70 -25.8 -14.5 -21.31 -0.839
01:52 1019 30.09 848 25.04 -21.8 -7.2 70 -25.9 -14.5 -21.34 -0.84
01:53 1019 30.09 848 25.04 -21.8 -7.2 70 -25.9 -14.6 -21.35 -0.841
01:54 1019 30.09 848 25.04 -21.8 -7.2 70 -25.9 -14.6 -21.33 -0.84
01:55 1019 30.09 848 25.04 -21.8 -7.2 70 -25.9 -14.6 -21.29 -0.838
01:56 1019 30.09 848 25.04 -21.7 -7.1 70 -25.9 -14.5 -21.31 -0.839
01:57 1019 30.09 848 25.04 -21.7 -7.1 70 -25.9 -14.5 -21.3 -0.839
01:58 1019 30.09 848 25.04 -21.8 -7.2 70 -25.8 -14.5 -21.35 -0.841
01:59 1019 30.09 848 25.04 -21.8 -7.2 70 -25.8 -14.5 -21.33 -0.84
02:00 1019 30.09 848 25.04 -21.8 -7.2 70 -25.8 -14.5 -21.35 -0.841
02:01 1019 30.09 848 25.04 -21.8 -7.2 71 -25.8 -14.4 -21.34 -0.84
02:02 1019 30.09 848 25.04 -21.8 -7.2 71 -25.8 -14.4 -21.35 -0.841
02:03 1019 30.09 848 25.04 -21.8 -7.3 71 -25.8 -14.4 -21.35 -0.841
02:04 1019 30.09 848 25.04 -21.8 -7.2 71 -25.7 -14.3 -21.38 -0.842
02:05 1019 30.09 848 25.04 -21.8 -7.3 71 -25.8 -14.4 -21.4 -0.843
02:06 1019 30.09 848 25.04 -21.8 -7.2 71 -25.7 -14.3 -21.36 -0.841
02:07 1019 30.09 848 25.04 -21.8 -7.2 71 -25.7 -14.3 -21.4 -0.843
02:08 1019 30.09 848 25.04 -21.8 -7.3 71 -25.8 -14.4 -21.4 -0.843
02:09 1019 30.09 848 25.04 -21.8 -7.2 71 -25.7 -14.3 -21.42 -0.843
02:10 1019 30.09 848 25.04 -21.9 -7.3 71 -25.7 -14.3 -21.42 -0.843
02:11 1019 30.09 848 25.04 -21.9 -7.4 71 -25.8 -14.4 -21.42 -0.843
02:12 1019 30.09 848 25.04 -21.9 -7.3 71 -25.7 -14.3 -21.44 -0.844
02:13 1019 30.09 848 25.04 -21.9 -7.3 71 -25.7 -14.3 -21.42 -0.843
02:14 1019 30.09 848 25.04 -21.8 -7.3 71 -25.7 -14.3 -21.44 -0.844
02:15 1019 30.09 848 25.04 -21.9 -7.4 71 -25.8 -14.4 -21.45 -0.844
02:16 1019 30.09 848 25.04 -21.9 -7.4 71 -25.7 -14.3 -21.48 -0.846
02:17 1019 30.09 848 25.04 -21.9 -7.5 72 -25.8 -14.4 -21.49 -0.846
02:18 1019 30.09 848 25.04 -22 -7.5 72 -25.8 -14.4 -21.56 -0.849
02:19 1019 30.09 848 25.04 -22 -7.5 71 -25.8 -14.5 -21.52 -0.847
02:20 1019 30.09 848 25.04 -21.9 -7.5 72 -25.8 -14.4 -21.51 -0.847
02:21 1019 30.09 848 25.04 -21.9 -7.5 71 -25.8 -14.5 -21.52 -0.847
02:22 1019 30.09 848 25.04 -21.9 -7.5 72 -25.8 -14.4 -21.51 -0.847
02:23 1019 30.09 848 25.04 -21.9 -7.5 72 -25.8 -14.4 -21.54 -0.848
02:24 1019 30.09 848 25.04 -22 -7.5 72 -25.8 -14.4 -21.51 -0.847
02:25 1019 30.09 848 25.04 -22 -7.5 71 -25.9 -14.6 -21.52 -0.847
02:26 1019 30.09 848 25.04 -21.9 -7.5 71 -25.8 -14.4 -21.51 -0.847
02:27 1019 30.09 848 25.04 -21.9 -7.5 72 -25.7 -14.3 -21.51 -0.847
02:28 1019 30.09 848 25.04 -21.9 -7.5 72 -25.8 -14.4 -21.53 -0.848
02:29 1019 30.09 848 25.04 -22 -7.5 72 -25.7 -14.3 -21.53 -0.848
02:30 1019 30.09 848 25.04 -22 -7.6 72 -25.7 -14.3 -21.56 -0.849
02:31 1019 30.09 848 25.04 -22 -7.6 73 -25.7 -14.2 -21.56 -0.849
02:32 1019 30.09 848 25.04 -22.1 -7.7 73 -25.7 -14.3 -21.63 -0.852
02:33 1019 30.09 848 25.04 -22.1 -7.7 73 -25.7 -14.3 -21.61 -0.851
02:34 1019 30.09 848 25.04 -22 -7.7 73 -25.7 -14.2 -21.62 -0.851
02:35 1019 30.09 848 25.04 -22 -7.7 73 -25.7 -14.3 -21.61 -0.851
02:36 1019 30.09 848 25.04 -22.1 -7.7 72 -25.8 -14.4 -21.66 -0.853
02:37 1019 30.09 848 25.04 -22.1 -7.7 72 -25.8 -14.4 -21.64 -0.852
02:38 1019 30.09 848 25.04 -22.1 -7.7 72 -25.8 -14.4 -21.65 -0.852
02:39 1019 30.09 848 25.04 -22 -7.6 72 -25.8 -14.4 -21.63 -0.852
02:40 1019 30.09 848 25.04 -22.1 -7.7 72 -25.8 -14.5 -21.64 -0.852
02:41 1019 30.09 848 25.04 -22.1 -7.8 72 -25.8 -14.5 -21.69 -0.854
02:42 1019 30.09 848 25.04 -22.1 -7.8 73 -25.8 -14.4 -21.72 -0.855
02:43 1019 30.09 848 25.04 -22.1 -7.9 73 -25.8 -14.4 -21.72 -0.855
02:44 1019 30.09 848 25.04 -22.1 -7.8 73 -25.8 -14.4 -21.71 -0.855
02:45 1019 30.09 848 25.04 -22.2 -7.9 73 -25.8 -14.4 -21.71 -0.855
02:46 1019 30.09 848 25.04 -22.2 -7.9 73 -25.8 -14.4 -21.72 -0.855
02:47 1019 30.09 848 25.04 -22.2 -7.9 73 -25.8 -14.5 -21.8 -0.858
02:48 1019 30.09 848 25.04 -22.2 -7.9 73 -25.8 -14.5 -21.8 -0.858
02:49 1019 30.09 848 25.04 -22.2 -8 73 -25.8 -14.5 -21.81 -0.859
02:50 1019 30.09 848 25.04 -22.2 -8 73 -25.9 -14.6 -21.78 -0.857
02:51 1019 30.09 848 25.04 -22.2 -8 72 -25.9 -14.7 -21.8 -0.858
02:52 1019 30.09 848 25.04 -22.2 -8 72 -26 -14.7 -21.8 -0.858
02:53 1019 30.09 848 25.04 -22.2 -8 72 -26 -14.8 -21.83 -0.859
02:54 1019 30.09 848 25.04 -22.3 -8.1 72 -26 -14.8 -21.84 -0.86
02:55 1019 30.09 848 25.04 -22.2 -8 72 -26 -14.8 -21.84 -0.86
02:56 1019 30.09 848 25.04 -22.3 -8.1 72 -26.1 -15 -21.81 -0.859
02:57 1019 30.09 848 25.04 -22.2 -8 72 -26 -14.9 -21.83 -0.859
02:58 1019 30.09 848 25.04 -22.2 -8 72 -26 -14.8 -21.84 -0.86
02:59 1019 30.09 848 25.04 -22.3 -8.1 72 -26.1 -14.9 -21.84 -0.86
03:00 1019 30.09 848 25.04 -22.3 -8.1 72 -26.1 -15 -21.85 -0.86
03:01 1019 30.09 848 25.04 -22.3 -8.1 72 -26.1 -15 -21.86 -0.861
03:02 1019 30.09 848 25.04 -22.3 -8.1 71 -26.1 -15 -21.84 -0.86
03:03 1019 30.09 848 25.04 -22.3 -8.2 72 -26.1 -15 -21.93 -0.863
03:04 1019 30.09 848 25.04 -22.4 -8.2 72 -26.2 -15.1 -21.92 -0.863
03:05 1019 30.09 848 25.04 -22.4 -8.2 72 -26.2 -15.1 -21.93 -0.863
03:06 1019 30.09 848 25.04 -22.4 -8.3 72 -26.2 -15.2 -21.92 -0.863
03:07 1019 30.09 848 25.04 -22.3 -8.2 71 -26.2 -15.2 -21.93 -0.863
03:08 1019 30.09 848 25.04 -22.4 -8.2 71 -26.2 -15.2 -21.98 -0.865
03:09 1019 30.09 848 25.04 -22.4 -8.3 71 -26.3 -15.3 -21.96 -0.865
03:10 1019 30.09 848 25.04 -22.4 -8.3 71 -26.3 -15.3 -22.02 -0.867
03:11 1019 30.09 848 25.04 -22.4 -8.4 72 -26.2 -15.2 -22.03 -0.867
03:12 1019 30.09 848 25.04 -22.4 -8.4 72 -26.3 -15.3 -22.03 -0.867
03:13 1019 30.09 848 25.04 -22.5 -8.4 71 -26.3 -15.4 -22.06 -0.869
03:14 1019 30.09 848 25.04 -22.5 -8.4 71 -26.3 -15.4 -22.04 -0.868
03:15 1019 30.09 848 25.04 -22.5 -8.4 71 -26.4 -15.5 -22.04 -0.868
03:16 1019 30.09 848 25.04 -22.5 -8.5 71 -26.4 -15.5 -22.05 -0.868
03:17 1019 30.09 848 25.04 -22.5 -8.5 71 -26.4 -15.5 -22.08 -0.869
03:18 1019 30.09 848 25.04 -22.5 -8.5 71 -26.5 -15.6 -22.1 -0.87
03:19 1019 30.09 848 25.04 -22.5 -8.5 70 -26.5 -15.7 -22.06 -0.869
03:20 1019 30.09 848 25.04 -22.5 -8.5 70 -26.5 -15.8 -22.13 -0.871
03:21 1019 30.09 848 25.04 -22.5 -8.6 70 -26.6 -15.8 -22.12 -0.871
03:22 1019 30.09 848 25.04 -22.5 -8.6 70 -26.6 -15.8 -22.15 -0.872
03:23 1019 30.09 848 25.04 -22.5 -8.6 70 -26.6 -15.9 -22.13 -0.871
03:24 1019 30.09 848 25.04 -22.5 -8.4 69 -26.6 -16 -22.06 -0.869
03:25 1019 30.09 848 25.04 -22.5 -8.4 69 -26.7 -16 -22.05 -0.868
03:26 1019 30.09 848 25.04 -22.5 -8.5 69 -26.7 -16 -22.08 -0.869
03:27 1019 30.09 848 25.04 -22.5 -8.5 69 -26.7 -16.1 -22.06 -0.869
03:28 1019 30.09 848 25.04 -22.5 -8.5 69 -26.7 -16 -22.11 -0.87
03:29 1019 30.09 848 25.04 -22.5 -8.6 69 -26.7 -16 -22.14 -0.872
03:30 1019 30.09 848 25.04 -22.5 -8.6 69 -26.7 -16.1 -22.11 -0.87
03:31 1019 30.09 848 25.04 -22.5 -8.5 69 -26.8 -16.2 -22.09 -0.87
03:32 1019 30.09 848 25.04 -22.5 -8.5 69 -26.7 -16.1 -22.09 -0.87
03:33 1019 30.09 848 25.04 -22.5 -8.5 69 -26.7 -16.1 -22.11 -0.87
03:34 1019 30.09 848 25.04 -22.5 -8.5 69 -26.7 -16.1 -22.11 -0.87
03:35 1019 30.09 848 25.04 -22.5 -8.5 69 -26.8 -16.2 -22.1 -0.87
03:36 1019 30.09 848 25.04 -22.5 -8.5 68 -26.8 -16.3 -22.09 -0.87
03:37 1019 30.09 848 25.04 -22.5 -8.5 68 -26.9 -16.4 -22.13 -0.871
03:38 1019 30.09 848 25.04 -22.6 -8.6 68 -26.9 -16.4 -22.15 -0.872
03:39 1019 30.09 848 25.04 -22.6 -8.7 68 -26.9 -16.5 -22.17 -0.873
03:40 1019 30.09 848 25.04 -22.6 -8.6 68 -26.9 -16.4 -22.13 -0.871
03:41 1019 30.09 848 25.04 -22.6 -8.7 68 -27 -16.6 -22.19 -0.874
03:42 1018 30.06 848 25.04 -22.6 -8.7 68 -27 -16.5 -22.24 -0.876
03:43 1018 30.06 848 25.04 -22.6 -8.7 68 -27 -16.6 -22.17 -0.873
03:44 1018 30.06 848 25.04 -22.6 -8.6 68 -27 -16.6 -22.14 -0.872
03:45 1018 30.06 848 25.04 -22.5 -8.6 68 -27 -16.6 -22.13 -0.871
03:46 1018 30.06 848 25.04 -22.5 -8.6 68 -27 -16.6 -22.18 -0.873
03:47 1018 30.06 848 25.04 -22.6 -8.7 68 -27 -16.6 -22.17 -0.873
03:48 1018 30.06 848 25.04 -22.6 -8.7 68 -27 -16.6 -22.18 -0.873
03:49 1018 30.06 848 25.04 -22.6 -8.7 67 -27.1 -16.8 -22.22 -0.875
03:50 1018 30.06 848 25.04 -22.6 -8.7 67 -27.1 -16.8 -22.22 -0.875
03:51 1018 30.06 848 25.04 -22.6 -8.7 67 -27.1 -16.8 -22.23 -0.875
03:52 1018 30.06 848 25.04 -22.7 -8.8 67 -27.2 -16.9 -22.23 -0.875
03:53 1018 30.06 848 25.04 -22.6 -8.8 67 -27.2 -16.9 -22.19 -0.874
03:54 1018 30.06 848 25.04 -22.6 -8.7 67 -27.2 -16.9 -22.19 -0.874
03:55 1018 30.06 848 25.04 -22.6 -8.8 67 -27.2 -17 -22.2 -0.874
03:56 1018 30.06 848 25.04 -22.6 -8.7 67 -27.2 -17 -22.19 -0.874
03:57 1018 30.06 848 25.04 -22.7 -8.8 67 -27.2 -17 -22.22 -0.875
03:58 1018 30.06 848 25.04 -22.7 -8.8 67 -27.2 -17 -22.25 -0.876
03:59 1018 30.06 848 25.04 -22.7 -8.8 68 -27.1 -16.8 -22.21 -0.874
04:00 1018 30.06 848 25.04 -22.7 -8.8 67 -27.1 -16.9 -22.24 -0.876
04:01 1018 30.06 848 25.04 -22.7 -8.8 68 -27.1 -16.8 -22.25 -0.876
04:02 1018 30.06 848 25.04 -22.7 -8.8 68 -27.1 -16.8 -22.25 -0.876
04:03 1018 30.06 848 25.04 -22.7 -8.8 68 -27.1 -16.8 -22.26 -0.876
04:04 1018 30.06 848 25.04 -22.7 -8.8 68 -27.1 -16.9 -22.27 -0.877
04:05 1018 30.06 848 25.04 -22.7 -8.9 67 -27.2 -16.9 -22.28 -0.877
04:06 1018 30.06 848 25.04 -22.7 -8.9 68 -27.2 -16.9 -22.31 -0.878
04:07 1018 30.06 847 25.01 -22.7 -8.9 68 -27.1 -16.9 -22.3 -0.878
04:08 1018 30.06 847 25.01 -22.7 -8.9 67 -27.2 -17 -22.3 -0.878
04:09 1018 30.06 848 25.04 -22.7 -8.8 67 -27.2 -16.9 -22.32 -0.879
04:10 1018 30.06 848 25.04 -22.8 -9 67 -27.2 -17 -22.32 -0.879
04:11 1018 30.06 848 25.04 -22.8 -9 67 -27.3 -17.1 -22.35 -0.88
04:12 1018 30.06 848 25.04 -22.8 -9 67 -27.3 -17.1 -22.4 -0.882
04:13 1018 30.06 847 25.01 -22.8 -9.1 67 -27.3 -17.2 -22.41 -0.882
04:14 1018 30.06 847 25.01 -22.8 -9.1 67 -27.4 -17.2 -22.37 -0.881
04:15 1018 30.06 847 25.01 -22.8 -9.1 67 -27.4 -17.3 -22.4 -0.882
04:16 1018 30.06 847 25.01 -22.9 -9.1 67 -27.4 -17.3 -22.43 -0.883
04:17 1018 30.06 847 25.01 -22.8 -9.1 66 -27.5 -17.4 -22.35 -0.88
04:18 1018 30.06 847 25.01 -22.8 -9 67 -27.4 -17.3 -22.36 -0.88
04:19 1018 30.06 847 25.01 -22.8 -9 67 -27.4 -17.3 -22.34 -0.88
04:20 1018 30.06 847 25.01 -22.8 -9.1 66 -27.4 -17.4 -22.39 -0.881
04:21 1018 30.06 847 25.01 -22.8 -9.1 67 -27.4 -17.4 -22.45 -0.884
04:22 1018 30.06 847 25.01 -22.9 -9.2 67 -27.5 -17.5 -22.46 -0.884
04:23 1018 30.06 847 25.01 -22.9 -9.2 66 -27.5 -17.6 -22.49 -0.885
04:24 1018 30.06 847 25.01 -22.9 -9.2 67 -27.5 -17.5 -22.46 -0.884
04:25 1018 30.06 847 25.01 -22.9 -9.2 67 -27.5 -17.5 -22.45 -0.884
04:26 1018 30.06 847 25.01 -22.9 -9.3 67 -27.5 -17.6 -22.52 -0.887
04:27 1018 30.06 847 25.01 -22.9 -9.3 67 -27.5 -17.5 -22.5 -0.886
04:28 1018 30.06 847 25.01 -22.9 -9.2 67 -27.5 -17.5 -22.49 -0.885
04:29 1018 30.06 847 25.01 -23 -9.3 67 -27.5 -17.6 -22.56 -0.888
04:30 1018 30.06 847 25.01 -23 -9.4 67 -27.6 -17.7 -22.57 -0.889
04:31 1018 30.06 847 25.01 -22.9 -9.3 67 -27.5 -17.6 -22.49 -0.885
04:32 1018 30.06 847 25.01 -22.9 -9.2 67 -27.5 -17.5 -22.46 -0.884
04:33 1018 30.06 847 25.01 -22.9 -9.1 67 -27.5 -17.4 -22.45 -0.884
04:34 1018 30.06 847 25.01 -22.9 -9.1 67 -27.5 -17.5 -22.42 -0.883
04:35 1018 30.06 847 25.01 -22.8 -9.1 67 -27.5 -17.4 -22.43 -0.883
04:36 1018 30.06 847 25.01 -22.8 -9.1 67 -27.4 -17.4 -22.45 -0.884
04:37 1018 30.06 847 25.01 -22.9 -9.3 67 -27.5 -17.5 -22.48 -0.885
04:38 1018 30.06 847 25.01 -22.9 -9.3 67 -27.5 -17.5 -22.53 -0.887
04:39 1018 30.06 847 25.01 -23 -9.4 67 -27.5 -17.5 -22.54 -0.887
04:40 1018 30.06 847 25.01 -22.9 -9.3 67 -27.5 -17.4 -22.54 -0.887
04:41 1018 30.06 847 25.01 -23 -9.3 67 -27.5 -17.5 -22.52 -0.887
04:42 1018 30.06 847 25.01 -23 -9.4 67 -27.5 -17.6 -22.57 -0.889
04:43 1018 30.06 847 25.01 -23.1 -9.5 67 -27.5 -17.6 -22.64 -0.891
04:44 1018 30.06 847 25.01 -23 -9.4 67 -27.5 -17.5 -22.57 -0.889
04:45 1018 30.06 847 25.01 -23.1 -9.5 68 -27.5 -17.4 -22.65 -0.892
04:46 1018 30.06 847 25.01 -23.1 -9.6 68 -27.5 -17.5 -22.65 -0.892
04:47 1018 30.06 847 25.01 -23.1 -9.6 68 -27.6 -17.6 -22.71 -0.894
04:48 1018 30.06 847 25.01 -23.1 -9.6 68 -27.6 -17.6 -22.71 -0.894
04:49 1018 30.06 847 25.01 -23.1 -9.6 67 -27.6 -17.7 -22.66 -0.892
04:50 1018 30.06 847 25.01 -23.1 -9.5 67 -27.6 -17.6 -22.67 -0.893
04:51 1018 30.06 847 25.01 -23.1 -9.5 67 -27.6 -17.6 -22.65 -0.892
04:52 1018 30.06 847 25.01 -23.1 -9.5 67 -27.6 -17.7 -22.62 -0.891
04:53 1018 30.06 847 25.01 -23.1 -9.5 67 -27.6 -17.7 -22.62 -0.891
04:54 1018 30.06 847 25.01 -23.1 -9.5 67 -27.6 -17.7 -22.63 -0.891
04:55 1018 30.06 847 25.01 -23.1 -9.5 67 -27.7 -17.8 -22.68 -0.893
04:56 1018 30.06 847 25.01 -23.2 -9.7 67 -27.7 -17.8 -22.7 -0.894
04:57 1018 30.06 847 25.01 -23.1 -9.7 67 -27.6 -17.8 -22.76 -0.896
04:58 1018 30.06 847 25.01 -23.2 -9.7 68 -27.6 -17.7 -22.77 -0.896
04:59 1018 30.06 847 25.01 -23.1 -9.6 68 -27.6 -17.6 -22.75 -0.896
05:00 1018 30.06 847 25.01 -23.2 -9.7 67 -27.6 -17.7 -22.75 -0.896
05:01 1018 30.06 847 25.01 -23.2 -9.8 68 -27.6 -17.7 -22.8 -0.898
05:02 1018 30.06 847 25.01 -23.2 -9.8 68 -27.7 -17.8 -22.78 -0.897
05:03 1018 30.06 847 25.01 -23.2 -9.8 67 -27.7 -17.8 -22.79 -0.897
05:04 1018 30.06 847 25.01 -23.2 -9.8 67 -27.7 -17.8 -22.78 -0.897
05:05 1018 30.06 847 25.01 -23.3 -9.9 67 -27.8 -18 -22.81 -0.898
05:06 1018 30.06 847 25.01 -23.3 -9.9 68 -27.7 -17.9 -22.86 -0.9
05:07 1018 30.06 847 25.01 -23.2 -9.8 68 -27.6 -17.7 -22.78 -0.897
05:08 1018 30.06 847 25.01 -23.2 -9.7 68 -27.6 -17.7 -22.79 -0.897
05:09 1018 30.06 847 25.01 -23.2 -9.8 68 -27.6 -17.7 -22.79 -0.897
05:10 1018 30.06 847 25.01 -23.2 -9.8 68 -27.6 -17.8 -22.78 -0.897
05:11 1018 30.06 847 25.01 -23.2 -9.7 67 -27.6 -17.7 -22.75 -0.896
05:12 1018 30.06 847 25.01 -23.3 -9.9 68 -27.6 -17.8 -22.82 -0.898
05:13 1018 30.06 847 25.01 -23.3 -10 68 -27.6 -17.8 -22.87 -0.9
05:14 1018 30.06 847 25.01 -23.3 -9.9 68 -27.6 -17.8 -22.79 -0.897
05:15 1018 30.06 847 25.01 -23.2 -9.8 67 -27.7 -17.8 -22.79 -0.897
05:16 1018 30.06 847 25.01 -23.2 -9.7 68 -27.6 -17.7 -22.76 -0.896
05:17 1018 30.06 847 25.01 -23.2 -9.7 68 -27.6 -17.7 -22.76 -0.896
05:18 1018 30.06 847 25.01 -23.2 -9.8 67 -27.7 -17.8 -22.77 -0.896
05:19 1018 30.06 847 25.01 -23.2 -9.8 67 -27.7 -17.8 -22.8 -0.898
05:20 1018 30.06 847 25.01 -23.3 -9.9 68 -27.7 -17.8 -22.88 -0.901
05:21 1018 30.06 847 25.01 -23.3 -9.9 68 -27.7 -17.8 -22.86 -0.9
05:22 1018 30.06 847 25.01 -23.3 -9.9 67 -27.7 -17.9 -22.83 -0.899
05:23 1018 30.06 847 25.01 -23.2 -9.8 68 -27.6 -17.7 -22.81 -0.898
05:24 1018 30.06 847 25.01 -23.3 -9.9 68 -27.7 -17.8 -22.83 -0.899
05:25 1018 30.06 847 25.01 -23.3 -9.9 68 -27.7 -17.8 -22.84 -0.899
05:26 1018 30.06 847 25.01 -23.3 -9.9 67 -27.8 -18 -22.9 -0.902
05:27 1018 30.06 847 25.01 -23.3 -9.9 67 -27.8 -18 -22.83 -0.899
05:28 1018 30.06 847 25.01 -23.2 -9.8 67 -27.8 -18 -22.84 -0.899
05:29 1018 30.06 847 25.01 -23.2 -9.8 67 -27.8 -18.1 -22.8 -0.898
05:30 1018 30.06 847 25.01 -23.2 -9.7 67 -27.8 -18 -22.77 -0.896
05:31 1018 30.06 847 25.01 -23.2 -9.7 66 -27.8 -18 -22.73 -0.895
05:32 1018 30.06 847 25.01 -23.2 -9.8 67 -27.8 -18 -22.78 -0.897
05:33 1018 30.06 847 25.01 -23.2 -9.8 67 -27.7 -17.9 -22.78 -0.897
05:34 1018 30.06 847 25.01 -23.2 -9.8 67 -27.7 -17.8 -22.76 -0.896
05:35 1018 30.06 847 25.01 -23.2 -9.8 67 -27.7 -17.8 -22.79 -0.897
05:36 1018 30.06 847 25.01 -23.2 -9.8 67 -27.8 -18 -22.8 -0.898
05:37 1018 30.06 847 25.01 -23.2 -9.7 67 -27.7 -17.9 -22.78 -0.897
05:38 1018 30.06 847 25.01 -23.2 -9.8 67 -27.8 -18 -22.75 -0.896
05:39 1018 30.06 847 25.01 -23.2 -9.7 67 -27.8 -18 -22.78 -0.897
05:40 1018 30.06 847 25.01 -23.2 -9.8 67 -27.8 -18 -22.8 -0.898
05:41 1018 30.06 847 25.01 -23.2 -9.8 67 -27.7 -17.9 -22.8 -0.898
05:42 1018 30.06 847 25.01 -23.3 -9.9 67 -27.8 -18 -22.85 -0.9
05:43 1018 30.06 847 25.01 -23.3 -9.9 67 -27.8 -18 -22.86 -0.9
05:44 1018 30.06 847 25.01 -23.3 -9.9 67 -27.8 -18.1 -22.85 -0.9
05:45 1018 30.06 847 25.01 -23.3 -9.9 67 -27.8 -18.1 -22.84 -0.899
05:46 1018 30.06 847 25.01 -23.3 -9.9 67 -27.9 -18.2 -22.83 -0.899
05:47 1018 30.06 847 25.01 -23.3 -9.9 67 -27.8 -18.1 -22.86 -0.9
05:48 1018 30.06 847 25.01 -23.3 -9.9 67 -27.8 -18 -22.82 -0.898
05:49 1018 30.06 847 25.01 -23.2 -9.8 67 -27.8 -18.1 -22.78 -0.897
05:50 1018 30.06 847 25.01 -23.2 -9.8 67 -27.8 -18.1 -22.77 -0.896
05:51 1018 30.06 847 25.01 -23.2 -9.8 66 -27.9 -18.2 -22.78 -0.897
05:52 1018 30.06 847 25.01 -23.2 -9.8 66 -27.8 -18.1 -22.79 -0.897
08:25 1017 30.03 846 24.98 -23.9 -11.1 63 -29.1 -20.4 -23.59 -0.929
08:26 1017 30.03 846 24.98 -23.9 -11 63 -29.1 -20.4 -23.59 -0.929
08:27 1017 30.03 846 24.98 -23.9 -11 63 -29.1 -20.4 -23.52 -0.926
08:28 1017 30.03 846 24.98 -23.8 -10.9 63 -29 -20.3 -23.51 -0.926
08:29 1017 30.03 846 24.98 -23.9 -11 63 -29.1 -20.3 -23.51 -0.926
08:30 1017 30.03 846 24.98 -23.8 -10.9 63 -29 -20.3 -23.52 -0.926
08:31 1017 30.03 846 24.98 -23.9 -10.9 63 -29.1 -20.3 -23.58 -0.928
08:32 1017 30.03 846 24.98 -23.9 -11 63 -29.1 -20.4 -23.54 -0.927
08:33 1017 30.03 846 24.98 -23.9 -11 63 -29.1 -20.4 -23.56 -0.928
08:34 1017 30.03 846 24.98 -23.9 -10.9 63 -29.1 -20.4 -23.53 -0.926
08:35 1017 30.03 846 24.98 -23.9 -10.9 63 -29.1 -20.3 -23.51 -0.926
08:36 1017 30.03 846 24.98 -23.9 -10.9 63 -29.1 -20.4 -23.52 -0.926
08:37 1017 30.03 846 24.98 -23.8 -10.9 62 -29.1 -20.4 -23.48 -0.924
08:38 1017 30.03 846 24.98 -23.8 -10.9 62 -29.1 -20.4 -23.48 -0.924
08:39 1017 30.03 846 24.98 -23.8 -10.8 62 -29.1 -20.3 -23.44 -0.923
08:40 1017 30.03 846 24.98 -23.8 -10.8 62 -29.1 -20.4 -23.44 -0.923
08:41 1017 30.03 846 24.98 -23.8 -10.8 62 -29.1 -20.4 -23.46 -0.924
08:42 1017 30.03 846 24.98 -23.8 -10.8 62 -29.1 -20.3 -23.42 -0.922
08:43 1017 30.03 846 24.98 -23.8 -10.8 63 -29 -20.2 -23.44 -0.923
08:44 1017 30.03 846 24.98 -23.8 -10.8 63 -29.1 -20.3 -23.45 -0.923
08:45 1017 30.03 846 24.98 -23.8 -10.8 63 -29 -20.2 -23.47 -0.924
08:46 1017 30.03 846 24.98 -23.8 -10.8 62 -29.1 -20.3 -23.47 -0.924
08:47 1017 30.03 846 24.98 -23.8 -10.8 63 -29.1 -20.3 -23.48 -0.924
08:48 1017 30.03 846 24.98 -23.8 -10.8 62 -29.1 -20.4 -23.46 -0.924
08:49 1017 30.03 846 24.98 -23.8 -10.8 62 -29.1 -20.4 -23.47 -0.924
08:50 1017 30.03 846 24.98 -23.8 -10.8 62 -29.2 -20.5 -23.45 -0.923
08:51 1017 30.03 846 24.98 -23.8 -10.8 62 -29.1 -20.4 -23.46 -0.924
08:52 1017 30.03 846 24.98 -23.8 -10.8 62 -29.2 -20.5 -23.44 -0.923
08:53 1017 30.03 846 24.98 -23.7 -10.7 62 -29.1 -20.5 -23.44 -0.923
08:54 1017 30.03 846 24.98 -23.8 -10.8 62 -29.2 -20.5 -23.44 -0.923
08:55 1017 30.03 846 24.98 -23.8 -10.8 62 -29.2 -20.5 -23.48 -0.924
08:56 1017 30.03 846 24.98 -23.8 -10.8 62 -29.1 -20.4 -23.49 -0.925
08:57 1017 30.03 846 24.98 -23.8 -10.8 62 -29.1 -20.4 -23.49 -0.925
08:58 1017 30.03 846 24.98 -23.8 -10.8 62 -29.1 -20.5 -23.48 -0.924
08:59 1017 30.03 846 24.98 -23.8 -10.8 62 -29.1 -20.4 -23.46 -0.924
09:00 1017 30.03 846 24.98 -23.7 -10.7 62 -29.1 -20.3 -23.43 -0.922
09:01 1017 30.03 846 24.98 -23.7 -10.7 62 -29.1 -20.4 -23.44 -0.923
09:02 1017 30.03 846 24.98 -23.7 -10.6 62 -29.1 -20.4 -23.4 -0.921
09:03 1017 30.03 846 24.98 -23.7 -10.6 62 -29.1 -20.4 -23.44 -0.923
09:04 1017 30.03 846 24.98 -23.7 -10.6 62 -29.1 -20.4 -23.42 -0.922
09:05 1017 30.03 846 24.98 -23.7 -10.6 62 -29.1 -20.4 -23.42 -0.922
09:06 1017 30.03 846 24.98 -23.7 -10.6 62 -29.1 -20.5 -23.42 -0.922
09:07 1017 30.03 846 24.98 -23.7 -10.7 61 -29.2 -20.6 -23.45 -0.923
09:08 1017 30.03 846 24.98 -23.7 -10.6 61 -29.3 -20.7 -23.42 -0.922
09:09 1017 30.03 846 24.98 -23.6 -10.6 60 -29.3 -20.7 -23.36 -0.92
09:10 1017 30.03 846 24.98 -23.7 -10.6 61 -29.3 -20.7 -23.4 -0.921
09:11 1017 30.03 846 24.98 -23.6 -10.5 60 -29.3 -20.7 -23.41 -0.922
09:12 1017 30.03 846 24.98 -23.6 -10.5 60 -29.3 -20.8 -23.35 -0.919
09:13 1017 30.03 846 24.98 -23.6 -10.5 60 -29.3 -20.8 -23.33 -0.919
09:14 1017 30.03 846 24.98 -23.6 -10.5 60 -29.4 -20.9 -23.39 -0.921
09:15 1017 30.03 846 24.98 -23.6 -10.4 60 -29.3 -20.7 -23.34 -0.919
09:16 1017 30.03 846 24.98 -23.6 -10.4 60 -29.3 -20.8 -23.33 -0.919
09:17 1017 30.03 846 24.98 -23.6 -10.4 60 -29.3 -20.8 -23.28 -0.917
09:18 1017 30.03 846 24.98 -23.5 -10.3 60 -29.3 -20.8 -23.27 -0.916
09:19 1017 30.03 846 24.98 -23.5 -10.4 60 -29.3 -20.8 -23.27 -0.916
09:20 1017 30.03 846 24.98 -23.6 -10.4 59 -29.4 -20.9 -23.32 -0.918
09:21 1017 30.03 846 24.98 -23.5 -10.4 60 -29.4 -20.8 -23.27 -0.916
09:22 1017 30.03 846 24.98 -23.5 -10.3 59 -29.3 -20.8 -23.24 -0.915
09:23 1017 30.03 846 24.98 -23.5 -10.3 59 -29.3 -20.8 -23.24 -0.915
09:24 1017 30.03 846 24.98 -23.5 -10.3 59 -29.4 -20.9 -23.21 -0.914
09:25 1017 30.03 846 24.98 -23.5 -10.2 59 -29.3 -20.7 -23.18 -0.913
09:26 1017 30.03 846 24.98 -23.5 -10.2 60 -29.3 -20.7 -23.24 -0.915
09:27 1017 30.03 846 24.98 -23.5 -10.2 59 -29.3 -20.8 -23.24 -0.915
09:28 1017 30.03 846 24.98 -23.5 -10.2 60 -29.3 -20.7 -23.21 -0.914
09:29 1017 30.03 846 24.98 -23.4 -10.1 60 -29.2 -20.6 -23.18 -0.913
09:30 1017 30.03 846 24.98 -23.4 -10.2 60 -29.3 -20.7 -23.17 -0.912
09:31 1017 30.03 846 24.98 -23.4 -10.1 59 -29.3 -20.7 -23.15 -0.911
09:32 1017 30.03 846 24.98 -23.4 -10.1 59 -29.3 -20.7 -23.16 -0.912
09:33 1017 30.03 846 24.98 -23.4 -10.1 59 -29.3 -20.7 -23.14 -0.911
09:34 1017 30.03 846 24.98 -23.4 -10.1 59 -29.2 -20.6 -23.13 -0.911
09:35 1017 30.03 846 24.98 -23.4 -10 59 -29.3 -20.7 -23.15 -0.911
09:36 1017 30.03 846 24.98 -23.3 -10 59 -29.2 -20.6 -23.1 -0.909
09:37 1017 30.03 846 24.98 -23.3 -10 59 -29.2 -20.5 -23.09 -0.909
09:38 1017 30.03 846 24.98 -23.3 -10 59 -29.2 -20.6 -23.07 -0.908
09:39 1017 30.03 846 24.98 -23.3 -9.9 59 -29.2 -20.6 -23.07 -0.908
09:40 1017 30.03 846 24.98 -23.3 -9.9 59 -29.2 -20.5 -23.04 -0.907
09:41 1017 30.03 846 24.98 -23.3 -9.9 59 -29.2 -20.5 -23.03 -0.907
09:42 1017 30.03 846 24.98 -23.2 -9.8 59 -29.2 -20.6 -22.99 -0.905
09:43 1017 30.03 846 24.98 -23.2 -9.8 59 -29.2 -20.5 -22.96 -0.904
09:44 1017 30.03 846 24.98 -23.2 -9.7 59 -29.2 -20.6 -22.93 -0.903
09:45 1017 30.03 846 24.98 -23.2 -9.8 59 -29.1 -20.4 -22.96 -0.904
09:46 1017 30.03 846 24.98 -23.2 -9.8 59 -29.1 -20.5 -22.98 -0.905
09:47 1017 30.03 846 24.98 -23.2 -9.8 59 -29.2 -20.5 -22.94 -0.903
09:48 1017 30.03 846 24.98 -23.2 -9.8 59 -29.1 -20.4 -22.95 -0.904
09:49 1017 30.03 846 24.98 -23.2 -9.8 59 -29.2 -20.5 -22.97 -0.904
09:50 1017 30.03 846 24.98 -23.2 -9.8 59 -29.2 -20.5 -22.94 -0.903
09:51 1017 30.03 846 24.98 -23.3 -9.9 59 -29.2 -20.5 -22.98 -0.905
09:52 1017 30.03 846 24.98 -23.2 -9.7 59 -29.1 -20.4 -22.91 -0.902
09:53 1017 30.03 846 24.98 -23.2 -9.7 59 -29.1 -20.4 -22.92 -0.902
09:54 1017 30.03 846 24.98 -23.2 -9.7 59 -29 -20.3 -22.9 -0.902
09:55 1017 30.03 846 24.98 -23.2 -9.7 59 -29.1 -20.3 -22.89 -0.901
09:56 1017 30.03 846 24.98 -23.1 -9.6 59 -29 -20.2 -22.84 -0.899
09:57 1017 30.03 846 24.98 -23.1 -9.6 59 -29 -20.2 -22.84 -0.899
09:58 1017 30.03 846 24.98 -23.1 -9.6 60 -28.9 -20 -22.82 -0.898
09:59 1017 30.03 846 24.98 -23.1 -9.6 60 -28.9 -20.1 -22.8 -0.898
10:00 1017 30.03 846 24.98 -23.1 -9.6 59 -29 -20.3 -22.78 -0.897
10:01 1017 30.03 846 24.98 -23.1 -9.6 59 -29 -20.2 -22.76 -0.896
10:02 1017 30.03 846 24.98 -23.1 -9.6 59 -29 -20.2 -22.79 -0.897
10:03 1017 30.03 846 24.98 -23.1 -9.6 59 -29 -20.2 -22.78 -0.897
10:04 1017 30.03 846 24.98 -23.1 -9.5 59 -29 -20.3 -22.73 -0.895
10:05 1017 30.03 846 24.98 -23.1 -9.5 59 -29 -20.2 -22.74 -0.895
10:06 1017 30.03 846 24.98 -23.1 -9.5 59 -29 -20.2 -22.7 -0.894
10:07 1017 30.03 846 24.98 -23 -9.4 59 -28.9 -20 -22.7 -0.894
10:08 1017 30.03 846 24.98 -23 -9.4 59 -29 -20.1 -22.69 -0.893
10:09 1017 30.03 846 24.98 -23 -9.3 59 -28.9 -19.9 -22.68 -0.893
10:10 1017 30.03 846 24.98 -23 -9.3 60 -28.8 -19.8 -22.68 -0.893
10:11 1016 30 846 24.98 -23 -9.3 60 -28.8 -19.9 -22.67 -0.893
10:12 1016 30 846 24.98 -23 -9.3 60 -28.8 -19.9 -22.67 -0.893
10:13 1016 30 846 24.98 -23 -9.4 60 -28.8 -19.8 -22.67 -0.893
10:14 1016 30 846 24.98 -23 -9.3 59 -28.9 -20 -22.63 -0.891
10:15 1016 30 846 24.98 -22.9 -9.3 60 -28.8 -19.8 -22.61 -0.89
10:16 1016 30 846 24.98 -22.9 -9.3 60 -28.7 -19.7 -22.62 -0.891
10:17 1016 30 846 24.98 -22.9 -9.2 59 -28.8 -19.8 -22.56 -0.888
10:18 1016 30 846 24.98 -22.9 -9.1 59 -28.7 -19.7 -22.56 -0.888
10:19 1016 30 846 24.98 -22.9 -9.2 59 -28.8 -19.8 -22.55 -0.888
10:20 1016 30 846 24.98 -22.9 -9.2 59 -28.8 -19.8 -22.55 -0.888
10:21 1016 30 846 24.98 -22.9 -9.2 59 -28.8 -19.8 -22.51 -0.886
10:22 1016 30 845 24.95 -22.8 -9.1 59 -28.7 -19.7 -22.5 -0.886
10:23 1016 30 845 24.95 -22.9 -9.2 60 -28.6 -19.5 -22.51 -0.886
10:24 1016 30 845 24.95 -22.9 -9.1 61 -28.5 -19.3 -22.5 -0.886
10:25 1016 30 845 24.95 -22.8 -9 60 -28.6 -19.5 -22.47 -0.885
10:26 1016 30 845 24.95 -22.8 -9 60 -28.6 -19.5 -22.44 -0.883
10:27 1016 30 845 24.95 -22.8 -9.1 60 -28.7 -19.6 -22.43 -0.883
10:28 1016 30 845 24.95 -22.8 -9.1 60 -28.6 -19.5 -22.45 -0.884
10:29 1016 30 845 24.95 -22.8 -9.1 60 -28.6 -19.4 -22.45 -0.884
10:30 1016 30 846 24.98 -22.8 -9 60 -28.5 -19.2 -22.41 -0.882
10:31 1016 30 845 24.95 -22.7 -8.9 60 -28.4 -19.1 -22.39 -0.881
10:32 1016 30 845 24.95 -22.7 -8.8 60 -28.5 -19.3 -22.36 -0.88
10:33 1016 30 845 24.95 -22.7 -8.8 59 -28.6 -19.5 -22.35 -0.88
10:34 1016 30 845 24.95 -22.6 -8.7 59 -28.7 -19.6 -22.31 -0.878
10:35 1016 30 845 24.95 -22.6 -8.7 59 -28.6 -19.5 -22.33 -0.879
10:36 1016 30 845 24.95 -22.6 -8.7 59 -28.5 -19.3 -22.29 -0.878
10:37 1016 30 845 24.95 -22.6 -8.7 59 -28.7 -19.6 -22.29 -0.878
10:38 1016 30 845 24.95 -22.6 -8.7 59 -28.5 -19.4 -22.27 -0.877
10:39 1016 30 845 24.95 -22.6 -8.6 59 -28.6 -19.4 -22.24 -0.876
10:40 1016 30 845 24.95 -22.6 -8.7 59 -28.5 -19.4 -22.28 -0.877
10:41 1016 30 845 24.95 -22.6 -8.6 59 -28.6 -19.4 -22.26 -0.876
10:42 1016 30 845 24.95 -22.6 -8.6 58 -28.7 -19.6 -22.27 -0.877
10:43 1016 30 845 24.95 -22.6 -8.6 58 -28.7 -19.6 -22.25 -0.876
10:44 1016 30 845 24.95 -22.6 -8.6 59 -28.6 -19.4 -22.26 -0.876
10:45 1016 30 845 24.95 -22.6 -8.7 59 -28.6 -19.5 -22.27 -0.877
10:46 1016 30 845 24.95 -22.6 -8.7 59 -28.7 -19.6 -22.26 -0.876
10:47 1016 30 845 24.95 -22.6 -8.7 58 -28.7 -19.7 -22.25 -0.876
10:48 1016 30 845 24.95 -22.6 -8.6 59 -28.6 -19.4 -22.24 -0.876
10:49 1016 30 845 24.95 -22.5 -8.6 60 -28.4 -19.1 -22.21 -0.874
10:50 1016 30 845 24.95 -22.5 -8.4 58 -28.7 -19.6 -22.16 -0.872
10:51 1016 30 845 24.95 -22.5 -8.4 59 -28.5 -19.3 -22.15 -0.872
10:52 1016 30 845 24.95 -22.4 -8.4 59 -28.5 -19.2 -22.09 -0.87
10:53 1016 30 845 24.95 -22.4 -8.3 58 -28.7 -19.6 -22.11 -0.87
10:54 1016 30 845 24.95 -22.4 -8.3 59 -28.4 -19.2 -22.11 -0.87
10:55 1016 30 845 24.95 -22.4 -8.3 58 -28.5 -19.4 -22.09 -0.87
10:56 1016 30 845 24.95 -22.4 -8.3 58 -28.6 -19.4 -22.09 -0.87
10:57 1016 30 845 24.95 -22.5 -8.4 58 -28.7 -19.6 -22.12 -0.871
10:58 1016 30 845 24.95 -22.4 -8.3 58 -28.5 -19.3 -22.08 -0.869
10:59 1016 30 845 24.95 -22.4 -8.2 58 -28.5 -19.2 -22.06 -0.869
11:00 1016 30 845 24.95 -22.3 -8.2 58 -28.5 -19.2 -21.99 -0.866
11:01 1016 30 845 24.95 -22.3 -8.1 58 -28.4 -19.2 -21.98 -0.865
11:02 1016 30 845 24.95 -22.3 -8.1 58 -28.5 -19.3 -21.95 -0.864
11:03 1016 30 845 24.95 -22.2 -8 57 -28.5 -19.3 -21.95 -0.864
11:04 1016 30 845 24.95 -22.2 -8 58 -28.4 -19.1 -21.89 -0.862
11:05 1016 30 845 24.95 -22.2 -7.9 57 -28.6 -19.5 -21.91 -0.863
11:06 1016 30 845 24.95 -22.2 -7.9 57 -28.6 -19.5 -21.84 -0.86
11:07 1016 30 845 24.95 -22.1 -7.8 57 -28.5 -19.3 -21.83 -0.859
11:08 1016 30 845 24.95 -22.1 -7.7 57 -28.5 -19.3 -21.77 -0.857
11:09 1016 30 845 24.95 -22.1 -7.7 57 -28.5 -19.2 -21.73 -0.856
11:10 1016 30 845 24.95 -22 -7.7 56 -28.5 -19.4 -21.74 -0.856
11:11 1016 30 845 24.95 -22.1 -7.7 56 -28.6 -19.6 -21.74 -0.856
11:12 1016 30 845 24.95 -22.1 -7.7 57 -28.4 -19.1 -21.73 -0.856
11:13 1016 30 845 24.95 -22 -7.6 56 -28.5 -19.4 -21.68 -0.854
11:14 1016 30 845 24.95 -22 -7.6 56 -28.5 -19.4 -21.68 -0.854
11:15 1016 30 845 24.95 -22 -7.6 57 -28.4 -19.1 -21.69 -0.854
11:16 1016 30 845 24.95 -21.9 -7.5 56 -28.4 -19.2 -21.68 -0.854
11:17 1016 30 845 24.95 -22 -7.5 57 -28.3 -19 -21.65 -0.852
11:18 1016 30 845 24.95 -22 -7.5 56 -28.5 -19.3 -21.65 -0.852
11:19 1016 30 845 24.95 -22 -7.7 56 -28.5 -19.4 -21.7 -0.854
11:20 1016 30 845 24.95 -22.1 -7.7 58 -28.3 -19 -21.76 -0.857
11:21 1016 30 845 24.95 -22 -7.6 57 -28.3 -19 -21.74 -0.856
11:22 1016 30 845 24.95 -22.1 -7.7 58 -28.2 -18.8 -21.76 -0.857
11:23 1016 30 845 24.95 -22.1 -7.7 58 -28.2 -18.8 -21.8 -0.858
11:24 1016 30 845 24.95 -22.1 -7.7 58 -28.3 -18.9 -21.78 -0.857
11:25 1016 30 845 24.95 -22.1 -7.7 58 -28.3 -18.9 -21.76 -0.857
11:26 1016 30 845 24.95 -22.1 -7.7 59 -28.1 -18.5 -21.74 -0.856
11:27 1016 30 845 24.95 -22 -7.6 61 -27.7 -17.8 -21.67 -0.853
11:28 1016 30 845 24.95 -21.9 -7.4 65 -26.8 -16.2 -21.55 -0.848
11:29 1016 30 845 24.95 -21.8 -7.3 68 -26.3 -15.3 -21.54 -0.848
11:30 1016 30 845 24.95 -21.8 -7.3 68 -26.2 -15.2 -21.62 -0.851
11:31 1016 30 845 24.95 -21.9 -7.4 69 -26.1 -14.9 -21.73 -0.856
11:32 1016 30 845 24.95 -22 -7.6 70 -26.2 -15.1 -21.77 -0.857
11:33 1016 30 845 24.95 -22.2 -7.9 71 -26.1 -15 -21.9 -0.862
11:34 1016 30 845 24.95 -22.3 -8.1 72 -26.1 -15 -22.01 -0.867
11:35 1016 30 845 24.95 -22.3 -8.1 72 -26.1 -15 -22.02 -0.867
11:36 1016 30 845 24.95 -22.3 -8.2 72 -26.1 -15 -21.97 -0.865
11:37 1016 30 845 24.95 -22.3 -8.2 72 -26.1 -15 -22.01 -0.867
11:38 1016 30 845 24.95 -22.3 -8.1 72 -26 -14.8 -22 -0.866
11:39 1016 30 845 24.95 -22.3 -8.1 73 -26 -14.7 -21.97 -0.865
11:40 1016 30 845 24.95 -22.3 -8.1 72 -26.1 -14.9 -21.99 -0.866
11:41 1016 30 845 24.95 -22.3 -8.2 73 -26 -14.8 -21.98 -0.865
11:42 1016 30 845 24.95 -22.3 -8.2 73 -25.9 -14.6 -21.97 -0.865
11:43 1016 30 845 24.95 -22.3 -8.1 73 -26 -14.7 -21.9 -0.862
11:44 1016 30 845 24.95 -22.3 -8.1 71 -26.2 -15.1 -21.92 -0.863
11:45 1016 30 845 24.95 -22.3 -8.1 70 -26.3 -15.4 -21.98 -0.865
11:46 1016 30 845 24.95 -22.3 -8.2 69 -26.5 -15.7 -21.99 -0.866
11:47 1016 30 845 24.95 -22.3 -8.1 71 -26.1 -15 -21.99 -0.866
11:48 1016 30 845 24.95 -22.2 -8 72 -26 -14.9 -21.91 -0.863
11:49 1016 30 845 24.95 -22.2 -8 72 -26 -14.7 -21.92 -0.863
11:50 1016 30 845 24.95 -22.2 -8 73 -25.9 -14.6 -21.93 -0.863
11:51 1016 30 845 24.95 -22.2 -8 72 -26 -14.7 -21.9 -0.862
11:52 1016 30 845 24.95 -22.3 -8.1 72 -25.9 -14.7 -21.89 -0.862
11:53 1016 30 845 24.95 -22.2 -7.9 72 -25.9 -14.6 -21.95 -0.864
11:54 1016 30 845 24.95 -22.2 -7.9 72 -25.9 -14.7 -21.99 -0.866
11:55 1016 30 845 24.95 -22.2 -8 72 -26 -14.7 -22.09 -0.87
11:56 1016 30 845 24.95 -22.3 -8.1 72 -26 -14.8 -22.15 -0.872
11:57 1016 30 845 24.95 -22.3 -8.2 72 -26.1 -14.9 -22.19 -0.874
11:58 1016 30 845 24.95 -22.4 -8.2 73 -26 -14.9 -22.23 -0.875
11:59 1016 30 845 24.95 -22.3 -8.2 73 -25.9 -14.6 -22.16 -0.872
12:00 1016 30 845 24.95 -22.3 -8.2 73 -26 -14.8 -22.2 -0.874
12:01 1016 30 845 24.95 -22.3 -8.2 72 -26.1 -15 -22.25 -0.876
12:02 1015 29.97 845 24.95 -22.4 -8.3 72 -26.1 -15 -22.3 -0.878
12:03 1015 29.97 845 24.95 -22.4 -8.3 74 -25.9 -14.6 -22.3 -0.878
12:04 1015 29.97 845 24.95 -22.3 -8.2 73 -25.9 -14.6 -22.24 -0.876
12:05 1015 29.97 845 24.95 -22.3 -8.1 73 -25.9 -14.6 -22.25 -0.876
12:06 1015 29.97 845 24.95 -22.3 -8.1 73 -25.9 -14.7 -22.21 -0.874
12:07 1015 29.97 845 24.95 -22.3 -8.1 73 -25.9 -14.6 -22.21 -0.874
12:08 1015 29.97 844 24.92 -22.2 -7.9 73 -25.8 -14.5 -22.22 -0.875
12:09 1015 29.97 844 24.92 -22.1 -7.9 72 -25.9 -14.6 -22.17 -0.873
12:10 1015 29.97 844 24.92 -22.1 -7.8 72 -25.9 -14.7 -22.18 -0.873
12:11 1015 29.97 844 24.92 -22.2 -8 72 -25.9 -14.7 -22.21 -0.874
12:12 1015 29.97 844 24.92 -22.3 -8.1 72 -26 -14.8 -22.21 -0.874
12:13 1015 29.97 844 24.92 -22.2 -8 72 -26 -14.8 -22.21 -0.874
12:14 1015 29.97 844 24.92 -22.3 -8.1 72 -26.1 -14.9 -22.19 -0.874
12:15 1015 29.97 844 24.92 -22.3 -8.2 72 -26 -14.9 -22.17 -0.873
12:16 1015 29.97 844 24.92 -22.3 -8.2 72 -26.1 -14.9 -22.09 -0.87
12:17 1015 29.97 844 24.92 -22.3 -8.1 72 -26 -14.8 -22.07 -0.869
12:18 1015 29.97 844 24.92 -22.3 -8.1 72 -26.1 -14.9 -22.01 -0.867
12:19 1015 29.97 844 24.92 -22.3 -8.1 72 -26.1 -14.9 -22.04 -0.868
12:20 1015 29.97 844 24.92 -22.3 -8.1 72 -26.1 -15 -22.05 -0.868
12:21 1015 29.97 844 24.92 -22.3 -8.2 73 -26 -14.8 -22.06 -0.869
12:22 1015 29.97 844 24.92 -22.3 -8.1 72 -26 -14.7 -22.03 -0.867
12:23 1015 29.97 844 24.92 -22.3 -8.1 72 -26 -14.8 -22 -0.866
12:24 1015 29.97 844 24.92 -22.2 -8 72 -26.1 -14.9 -22.03 -0.867
12:25 1015 29.97 844 24.92 -22.2 -8 71 -26.1 -15 -21.98 -0.865
12:26 1015 29.97 844 24.92 -22.2 -8 71 -26.1 -15 -21.99 -0.866
12:27 1015 29.97 844 24.92 -22.3 -8.1 71 -26.1 -15 -22.02 -0.867
12:28 1015 29.97 844 24.92 -22.2 -8 72 -26 -14.8 -22 -0.866
12:29 1015 29.97 844 24.92 -22.2 -8 72 -26.1 -14.9 -21.98 -0.865
12:30 1015 29.97 844 24.92 -22.2 -7.9 72 -26 -14.8 -21.94 -0.864
12:31 1015 29.97 844 24.92 -22.1 -7.8 72 -25.9 -14.7 -21.92 -0.863
12:32 1015 29.97 844 24.92 -22.1 -7.7 72 -25.9 -14.6 -21.85 -0.86
12:33 1015 29.97 844 24.92 -22 -7.6 72 -25.8 -14.5 -21.87 -0.861
12:34 1015 29.97 844 24.92 -22 -7.5 71 -25.9 -14.6 -21.88 -0.861
12:35 1015 29.97 844 24.92 -22 -7.6 71 -26 -14.7 -21.91 -0.863
12:36 1015 29.97 844 24.92 -22 -7.6 71 -25.9 -14.7 -21.95 -0.864
12:37 1015 29.97 844 24.92 -22 -7.6 71 -26 -14.7 -22.02 -0.867
12:38 1015 29.97 844 24.92 -21.9 -7.5 70 -26 -14.8 -22.08 -0.869
12:39 1015 29.97 844 24.92 -21.9 -7.4 70 -26.1 -14.9 -22.07 -0.869
12:40 1015 29.97 844 24.92 -21.9 -7.4 70 -26 -14.8 -22.09 -0.87
12:41 1015 29.97 844 24.92 -21.9 -7.5 70 -26 -14.8 -22.12 -0.871
12:42 1015 29.97 844 24.92 -22 -7.5 71 -26 -14.7 -22.13 -0.871
12:43 1015 29.97 844 24.92 -21.9 -7.4 70 -25.9 -14.7 -22.09 -0.87
12:44 1015 29.97 844 24.92 -21.9 -7.4 70 -26 -14.7 -22.09 -0.87
12:45 1015 29.97 844 24.92 -21.9 -7.5 70 -26.1 -14.9 -22.13 -0.871
12:46 1015 29.97 844 24.92 -22 -7.6 71 -26 -14.8 -22.17 -0.873
12:47 1015 29.97 844 24.92 -22 -7.6 71 -26 -14.8 -22.15 -0.872
12:48 1015 29.97 844 24.92 -21.9 -7.5 71 -25.9 -14.7 -22.11 -0.87
12:49 1015 29.97 844 24.92 -21.9 -7.4 70 -26 -14.8 -22.13 -0.871
12:50 1015 29.97 844 24.92 -21.9 -7.4 70 -26 -14.8 -22.14 -0.872
12:51 1015 29.97 844 24.92 -21.9 -7.4 69 -26.1 -15 -22.1 -0.87
12:52 1015 29.97 844 24.92 -22 -7.6 71 -26 -14.8 -22.14 -0.872
12:53 1015 29.97 844 24.92 -22 -7.6 70 -26.1 -14.9 -22.12 -0.871
12:54 1015 29.97 844 24.92 -22.1 -7.7 71 -26 -14.8 -22.12 -0.871
12:55 1015 29.97 844 24.92 -22.1 -7.8 71 -26 -14.8 -22.12 -0.871
12:56 1015 29.97 844 24.92 -22.1 -7.8 71 -26.1 -14.9 -22.05 -0.868
12:57 1015 29.97 844 24.92 -22.2 -7.9 71 -26.1 -15 -22.12 -0.871
12:58 1015 29.97 844 24.92 -22.3 -8.1 71 -26.2 -15.1 -22.11 -0.87
12:59 1015 29.97 844 24.92 -22.3 -8.1 72 -26 -14.8 -22.08 -0.869
13:00 1015 29.97 844 24.92 -22.1 -7.9 72 -25.9 -14.7 -21.98 -0.865
13:01 1015 29.97 844 24.92 -22.1 -7.7 70 -26.1 -14.9 -22.01 -0.867
13:02 1015 29.97 844 24.92 -22.2 -7.9 71 -26.2 -15.1 -22.1 -0.87
13:03 1015 29.97 844 24.92 -22.3 -8.1 71 -26.2 -15.1 -22.08 -0.869
13:04 1015 29.97 844 24.92 -22.3 -8.1 72 -26.1 -14.9 -22.08 -0.869
13:05 1015 29.97 844 24.92 -22.2 -8 71 -26.1 -14.9 -22.03 -0.867
13:06 1015 29.97 844 24.92 -22.2 -8 71 -26.1 -15 -22.03 -0.867
13:07 1015 29.97 844 24.92 -22.2 -8 71 -26.1 -15.1 -22.03 -0.867
13:08 1015 29.97 844 24.92 -22.2 -8 71 -26.1 -14.9 -22.02 -0.867
13:09 1015 29.97 844 24.92 -22.2 -7.9 72 -26 -14.8 -21.95 -0.864
13:10 1015 29.97 844 24.92 -22 -7.7 72 -25.9 -14.6 -21.89 -0.862
13:11 1014 29.94 844 24.92 -21.9 -7.4 71 -25.9 -14.6 -21.9 -0.862
13:12 1014 29.94 844 24.92 -21.8 -7.2 70 -25.9 -14.7 -21.89 -0.862
13:13 1014 29.94 844 24.92 -21.8 -7.2 70 -25.9 -14.7 -21.93 -0.863
13:14 1014 29.94 844 24.92 -21.7 -7.1 69 -25.9 -14.7 -21.9 -0.862
13:15 1014 29.94 844 24.92 -21.7 -7.1 68 -26.1 -15 -21.91 -0.863
13:16 1014 29.94 844 24.92 -21.9 -7.4 70 -26 -14.8 -21.92 -0.863
13:17 1014 29.94 844 24.92 -22 -7.6 70 -26.1 -15 -21.98 -0.865
13:18 1014 29.94 844 24.92 -22.1 -7.8 70 -26.2 -15.1 -21.96 -0.865
13:19 1014 29.94 844 24.92 -22.2 -7.9 70 -26.2 -15.1 -21.98 -0.865
13:20 1014 29.94 844 24.92 -22.1 -7.9 70 -26.2 -15.2 -22 -0.866
13:21 1014 29.94 844 24.92 -22.2 -7.9 70 -26.2 -15.2 -22 -0.866
13:22 1014 29.94 844 24.92 -22.2 -7.9 70 -26.3 -15.3 -21.94 -0.864
13:23 1014 29.94 844 24.92 -22.1 -7.8 71 -26.1 -15 -21.88 -0.861
13:24 1014 29.94 844 24.92 -22.1 -7.7 71 -26 -14.9 -21.85 -0.86
13:25 1014 29.94 844 24.92 -21.9 -7.5 70 -26.1 -15 -21.83 -0.859
13:26 1014 29.94 844 24.92 -21.9 -7.4 69 -26.1 -15 -21.84 -0.86
13:27 1014 29.94 843 24.89 -22 -7.5 70 -26.1 -14.9 -21.9 -0.862
13:28 1014 29.94 843 24.89 -22 -7.5 70 -26 -14.8 -21.92 -0.863
13:29 1014 29.94 843 24.89 -22.1 -7.7 70 -26.1 -15 -21.92 -0.863
13:30 1014 29.94 843 24.89 -22.1 -7.9 70 -26.2 -15.2 -21.96 -0.865
13:31 1014 29.94 843 24.89 -22.2 -7.9 71 -26.2 -15.1 -22 -0.866
13:32 1014 29.94 843 24.89 -22.3 -8.1 71 -26.2 -15.2 -22.06 -0.869
13:33 1014 29.94 843 24.89 -22.3 -8.1 71 -26.2 -15.2 -22.06 -0.869
13:34 1014 29.94 843 24.89 -22.2 -8 71 -26.1 -15 -21.96 -0.865
13:35 1014 29.94 843 24.89 -22.2 -7.9 71 -26.2 -15.1 -21.95 -0.864
13:36 1014 29.94 843 24.89 -22.1 -7.9 70 -26.2 -15.1 -21.94 -0.864
13:37 1014 29.94 843 24.89 -22.1 -7.9 71 -26.1 -15.1 -21.9 -0.862
13:38 1014 29.94 843 24.89 -22.1 -7.8 70 -26.2 -15.2 -21.9 -0.862
13:39 1014 29.94 843 24.89 -22 -7.7 70 -26.1 -15 -21.91 -0.863
13:40 1014 29.94 843 24.89 -21.9 -7.4 70 -26.1 -14.9 -21.86 -0.861
13:41 1014 29.94 843 24.89 -21.8 -7.3 68 -26.2 -15.2 -21.82 -0.859
13:42 1014 29.94 843 24.89 -21.8 -7.3 69 -26.1 -14.9 -21.81 -0.859
13:43 1014 29.94 843 24.89 -21.8 -7.2 68 -26.2 -15.1 -21.82 -0.859
13:44 1014 29.94 843 24.89 -21.7 -7 68 -26 -14.9 -21.82 -0.859
13:45 1014 29.94 843 24.89 -21.6 -6.9 68 -26.1 -15 -21.79 -0.858
13:46 1014 29.94 843 24.89 -21.7 -7 68 -26.1 -14.9 -21.8 -0.858
13:47 1014 29.94 843 24.89 -21.7 -7 68 -26 -14.9 -21.8 -0.858
13:48 1014 29.94 843 24.89 -21.6 -6.9 68 -26.1 -15 -21.85 -0.86
13:49 1014 29.94 843 24.89 -21.6 -6.9 67 -26.1 -15.1 -21.83 -0.859
13:50 1014 29.94 843 24.89 -21.7 -7.1 67 -26.3 -15.4 -21.87 -0.861
13:51 1014 29.94 843 24.89 -21.8 -7.3 67 -26.4 -15.5 -21.93 -0.863
13:52 1014 29.94 843 24.89 -21.9 -7.4 68 -26.4 -15.4 -21.94 -0.864
13:53 1014 29.94 843 24.89 -21.8 -7.3 69 -26.2 -15.1 -21.89 -0.862
13:54 1014 29.94 843 24.89 -21.8 -7.2 68 -26.2 -15.1 -21.85 -0.86
13:55 1014 29.94 843 24.89 -21.8 -7.2 67 -26.3 -15.3 -21.87 -0.861
13:56 1014 29.94 843 24.89 -21.8 -7.2 68 -26.2 -15.1 -21.87 -0.861
13:57 1014 29.94 843 24.89 -21.8 -7.2 68 -26.3 -15.3 -21.87 -0.861
13:58 1014 29.94 843 24.89 -21.8 -7.2 68 -26.2 -15.2 -21.85 -0.86
13:59 1014 29.94 843 24.89 -21.8 -7.2 67 -26.3 -15.4 -21.87 -0.861
14:00 1014 29.94 843 24.89 -21.9 -7.3 68 -26.3 -15.3 -21.87 -0.861
14:01 1014 29.94 843 24.89 -21.8 -7.3 68 -26.3 -15.3 -21.86 -0.861
14:02 1014 29.94 843 24.89 -21.7 -7.1 68 -26.2 -15.1 -21.83 -0.859
14:03 1014 29.94 843 24.89 -21.7 -7 67 -26.3 -15.3 -21.81 -0.859
14:04 1014 29.94 843 24.89 -21.7 -7 67 -26.3 -15.3 -21.8 -0.858
14:05 1014 29.94 843 24.89 -21.7 -7.1 67 -26.3 -15.3 -21.81 -0.859
14:06 1014 29.94 843 24.89 -21.8 -7.2 67 -26.3 -15.4 -21.79 -0.858
14:07 1014 29.94 843 24.89 -21.7 -7.1 67 -26.3 -15.3 -21.84 -0.86
14:08 1014 29.94 843 24.89 -21.7 -7 67 -26.3 -15.3 -21.84 -0.86
14:09 1014 29.94 843 24.89 -21.6 -6.9 67 -26.2 -15.2 -21.84 -0.86
14:10 1014 29.94 843 24.89 -21.6 -6.9 67 -26.2 -15.1 -21.76 -0.857
14:11 1014 29.94 843 24.89 -21.5 -6.7 66 -26.2 -15.2 -21.72 -0.855
14:12 1014 29.94 843 24.89 -21.4 -6.6 66 -26.2 -15.2 -21.73 -0.856
14:13 1014 29.94 843 24.89 -21.4 -6.6 66 -26.2 -15.2 -21.73 -0.856
14:14 1014 29.94 843 24.89 -21.5 -6.7 66 -26.2 -15.2 -21.61 -0.851
14:15 1014 29.94 843 24.89 -21.5 -6.7 67 -26.2 -15.1 -21.55 -0.848
14:16 1014 29.94 843 24.89 -21.5 -6.7 66 -26.3 -15.4 -21.51 -0.847
14:17 1014 29.94 843 24.89 -21.5 -6.8 66 -26.3 -15.4 -21.58 -0.85
14:18 1014 29.94 843 24.89 -21.6 -6.8 66 -26.4 -15.4 -21.62 -0.851
14:19 1014 29.94 843 24.89 -21.7 -7 66 -26.4 -15.5 -21.6 -0.85
14:20 1014 29.94 843 24.89 -21.7 -7 66 -26.3 -15.4 -21.69 -0.854
14:21 1014 29.94 843 24.89 -21.7 -7 66 -26.4 -15.6 -21.8 -0.858
14:22 1014 29.94 843 24.89 -21.7 -7 67 -26.4 -15.4 -21.73 -0.856
14:23 1014 29.94 843 24.89 -21.8 -7.2 67 -26.3 -15.4 -21.76 -0.857
14:24 1014 29.94 843 24.89 -21.8 -7.2 67 -26.4 -15.4 -21.8 -0.858
14:25 1014 29.94 843 24.89 -21.7 -7.1 67 -26.4 -15.5 -21.85 -0.86
14:26 1014 29.94 843 24.89 -21.8 -7.2 67 -26.4 -15.5 -21.86 -0.861
14:27 1014 29.94 843 24.89 -21.8 -7.3 67 -26.4 -15.5 -21.84 -0.86
14:28 1014 29.94 843 24.89 -21.9 -7.3 68 -26.3 -15.4 -21.84 -0.86
14:29 1014 29.94 843 24.89 -21.9 -7.4 67 -26.4 -15.6 -21.82 -0.859
14:30 1014 29.94 843 24.89 -21.9 -7.5 67 -26.5 -15.6 -21.81 -0.859
14:31 1014 29.94 843 24.89 -22 -7.6 68 -26.4 -15.6 -21.78 -0.857
14:32 1014 29.94 843 24.89 -22 -7.6 68 -26.4 -15.5 -21.81 -0.859
14:33 1014 29.94 843 24.89 -22 -7.7 69 -26.3 -15.4 -21.86 -0.861
14:34 1014 29.94 843 24.89 -22.1 -7.7 69 -26.4 -15.5 -21.84 -0.86
14:35 1014 29.94 843 24.89 -22.1 -7.8 68 -26.5 -15.7 -21.85 -0.86
14:36 1014 29.94 843 24.89 -22.2 -7.9 69 -26.5 -15.7 -21.91 -0.863
14:37 1014 29.94 843 24.89 -22.2 -8 69 -26.5 -15.7 -21.91 -0.863
14:38 1014 29.94 843 24.89 -22.2 -7.9 69 -26.4 -15.6 -21.88 -0.861
14:39 1014 29.94 843 24.89 -22.2 -8 69 -26.5 -15.7 -21.89 -0.862
14:40 1014 29.94 843 24.89 -22.2 -8 69 -26.5 -15.7 -21.89 -0.862
14:41 1014 29.94 843 24.89 -22.2 -7.9 69 -26.5 -15.7 -21.9 -0.862
14:42 1014 29.94 843 24.89 -22.2 -7.9 69 -26.5 -15.6 -21.9 -0.862
14:43 1014 29.94 843 24.89 -22.1 -7.9 69 -26.4 -15.5 -21.89 -0.862
14:44 1014 29.94 843 24.89 -22.1 -7.8 69 -26.4 -15.5 -21.84 -0.86
14:45 1014 29.94 843 24.89 -22.1 -7.8 68 -26.5 -15.6 -21.84 -0.86
14:46 1014 29.94 843 24.89 -22.1 -7.9 68 -26.5 -15.7 -21.89 -0.862
14:47 1014 29.94 843 24.89 -22.2 -7.9 68 -26.5 -15.7 -21.86 -0.861
14:48 1014 29.94 843 24.89 -22.2 -7.9 68 -26.5 -15.7 -21.88 -0.861
14:49 1014 29.94 843 24.89 -22.2 -7.9 68 -26.5 -15.8 -21.87 -0.861
14:50 1014 29.94 843 24.89 -22.2 -7.9 68 -26.6 -15.8 -21.9 -0.862
14:51 1014 29.94 843 24.89 -22.2 -7.9 68 -26.5 -15.8 -21.89 -0.862
14:52 1014 29.94 843 24.89 -22.2 -7.9 68 -26.5 -15.8 -21.93 -0.863
14:53 1014 29.94 843 24.89 -22.2 -8 68 -26.6 -15.8 -21.97 -0.865
14:54 1014 29.94 843 24.89 -22.2 -7.9 68 -26.6 -15.8 -21.91 -0.863
14:55 1014 29.94 843 24.89 -22.2 -7.9 68 -26.6 -15.8 -21.87 -0.861
14:56 1014 29.94 843 24.89 -22.2 -7.9 68 -26.5 -15.8 -21.85 -0.86
14:57 1014 29.94 843 24.89 -22.2 -7.9 68 -26.6 -15.8 -21.84 -0.86
14:58 1014 29.94 843 24.89 -22.2 -8 68 -26.6 -15.9 -21.87 -0.861
14:59 1014 29.94 843 24.89 -22.2 -8 68 -26.6 -15.9 -21.88 -0.861
15:00 1014 29.94 843 24.89 -22.3 -8.1 68 -26.6 -15.9 -21.89 -0.862
15:01 1014 29.94 843 24.89 -22.3 -8.1 68 -26.6 -15.9 -21.9 -0.862
15:02 1014 29.94 843 24.89 -22.3 -8.1 69 -26.6 -15.9 -21.96 -0.865
15:03 1014 29.94 843 24.89 -22.3 -8.1 68 -26.6 -15.9 -21.93 -0.863
15:04 1014 29.94 843 24.89 -22.2 -8 68 -26.5 -15.8 -21.93 -0.863
15:05 1014 29.94 843 24.89 -22.2 -8 68 -26.6 -15.9 -21.93 -0.863
15:06 1014 29.94 843 24.89 -22.3 -8.1 68 -26.6 -15.9 -21.92 -0.863
15:07 1014 29.94 843 24.89 -22.3 -8.1 68 -26.6 -15.9 -21.89 -0.862
15:08 1014 29.94 843 24.89 -22.2 -8 68 -26.6 -15.8 -21.86 -0.861
15:09 1014 29.94 843 24.89 -22.2 -7.9 68 -26.6 -15.8 -21.83 -0.859
15:10 1014 29.94 843 24.89 -22.3 -8.1 68 -26.6 -15.9 -21.89 -0.862
15:11 1014 29.94 843 24.89 -22.3 -8.1 69 -26.6 -15.9 -21.88 -0.861
15:12 1014 29.94 843 24.89 -22.3 -8.1 69 -26.6 -15.8 -21.89 -0.862
15:13 1014 29.94 843 24.89 -22.3 -8.1 69 -26.6 -15.9 -21.83 -0.859
15:14 1014 29.94 843 24.89 -22.3 -8.1 69 -26.6 -15.8 -21.83 -0.859
15:15 1014 29.94 843 24.89 -22.3 -8.2 68 -26.7 -16 -21.83 -0.859
15:16 1014 29.94 843 24.89 -22.4 -8.2 69 -26.7 -16 -21.86 -0.861
15:17 1014 29.94 843 24.89 -22.4 -8.3 69 -26.7 -16 -21.93 -0.863
15:18 1014 29.94 843 24.89 -22.4 -8.4 69 -26.7 -16 -21.96 -0.865
15:19 1014 29.94 843 24.89 -22.5 -8.4 69 -26.6 -16 -22 -0.866
15:20 1014 29.94 843 24.89 -22.4 -8.4 69 -26.6 -15.9 -22.01 -0.867
15:21 1014 29.94 843 24.89 -22.5 -8.4 69 -26.6 -16 -21.98 -0.865
15:22 1014 29.94 843 24.89 -22.4 -8.4 70 -26.6 -15.9 -21.98 -0.865
15:23 1014 29.94 843 24.89 -22.4 -8.4 69 -26.6 -15.9 -21.97 -0.865
15:24 1014 29.94 843 24.89 -22.5 -8.5 69 -26.7 -16.1 -22.02 -0.867
15:25 1014 29.94 843 24.89 -22.6 -8.6 69 -26.7 -16.1 -22.03 -0.867
15:26 1014 29.94 843 24.89 -22.6 -8.7 70 -26.7 -16.1 -22.07 -0.869
15:27 1014 29.94 843 24.89 -22.6 -8.8 70 -26.7 -16.1 -22.09 -0.87
15:28 1014 29.94 843 24.89 -22.7 -8.8 70 -26.7 -16.1 -22.07 -0.869
15:29 1014 29.94 843 24.89 -22.7 -8.8 70 -26.7 -16.1 -22.1 -0.87
15:30 1014 29.94 843 24.89 -22.7 -8.8 70 -26.7 -16.1 -22.15 -0.872
15:31 1014 29.94 843 24.89 -22.7 -8.8 70 -26.7 -16.1 -22.14 -0.872
15:32 1014 29.94 843 24.89 -22.7 -8.9 71 -26.7 -16 -22.16 -0.872
15:33 1014 29.94 843 24.89 -22.7 -8.9 71 -26.6 -15.9 -22.14 -0.872
15:34 1014 29.94 843 24.89 -22.7 -8.8 71 -26.7 -16 -22.11 -0.87
15:35 1014 29.94 843 24.89 -22.7 -8.8 70 -26.7 -16 -22.07 -0.869
15:36 1014 29.94 843 24.89 -22.7 -8.8 70 -26.7 -16 -22.08 -0.869
15:37 1014 29.94 843 24.89 -22.6 -8.7 70 -26.6 -15.9 -22.05 -0.868
15:38 1014 29.94 843 24.89 -22.6 -8.7 70 -26.7 -16.1 -22.04 -0.868
15:39 1013 29.91 843 24.89 -22.7 -8.8 70 -26.7 -16.1 -22.11 -0.87
15:40 1014 29.94 843 24.89 -22.8 -9 69 -26.9 -16.4 -22.19 -0.874
15:41 1013 29.91 843 24.89 -22.9 -9.3 69 -27.1 -16.7 -22.29 -0.878
15:42 1013 29.91 843 24.89 -23.1 -9.5 69 -27.2 -17 -22.4 -0.882
15:43 1013 29.91 843 24.89 -23.2 -9.7 70 -27.2 -16.9 -22.54 -0.887
15:44 1013 29.91 843 24.89 -23.2 -9.7 71 -27.1 -16.8 -22.62 -0.891
15:45 1013 29.91 843 24.89 -23.2 -9.8 72 -27 -16.6 -22.65 -0.892
15:46 1013 29.91 843 24.89 -23.2 -9.7 72 -26.8 -16.3 -22.65 -0.892
15:47 1013 29.91 843 24.89 -23.1 -9.6 72 -26.8 -16.2 -22.6 -0.89
15:48 1013 29.91 843 24.89 -23.1 -9.6 72 -26.9 -16.3 -22.55 -0.888
15:49 1013 29.91 843 24.89 -23.1 -9.6 72 -26.9 -16.4 -22.55 -0.888
15:50 1013 29.91 843 24.89 -23.1 -9.6 72 -26.8 -16.3 -22.56 -0.888
15:51 1013 29.91 843 24.89 -23.1 -9.5 72 -26.7 -16.1 -22.52 -0.887
15:52 1013 29.91 843 24.89 -23 -9.4 72 -26.7 -16.1 -22.48 -0.885
15:53 1013 29.91 843 24.89 -22.9 -9.2 72 -26.6 -15.9 -22.4 -0.882
15:54 1013 29.91 843 24.89 -22.9 -9.1 72 -26.6 -15.9 -22.33 -0.879
15:55 1013 29.91 842 24.86 -22.8 -9.1 72 -26.6 -15.9 -22.27 -0.877
15:56 1013 29.91 842 24.86 -22.8 -9 71 -26.7 -16 -22.26 -0.876
15:57 1013 29.91 842 24.86 -22.8 -9.1 71 -26.6 -16 -22.27 -0.877
15:58 1013 29.91 842 24.86 -22.9 -9.1 71 -26.8 -16.2 -22.27 -0.877
15:59 1013 29.91 842 24.86 -22.9 -9.2 71 -26.9 -16.3 -22.33 -0.879
16:00 1013 29.91 842 24.86 -23 -9.4 71 -27 -16.5 -22.36 -0.88
16:01 1013 29.91 842 24.86 -23.1 -9.5 70 -27.1 -16.7 -22.48 -0.885
16:02 1013 29.91 842 24.86 -23.2 -9.7 70 -27.1 -16.8 -22.56 -0.888
16:03 1013 29.91 842 24.86 -23.2 -9.8 71 -27.1 -16.8 -22.64 -0.891
16:04 1013 29.91 842 24.86 -23.3 -9.9 72 -27 -16.7 -22.74 -0.895
16:05 1013 29.91 842 24.86 -23.3 -9.9 73 -26.9 -16.4 -22.78 -0.897
16:06 1013 29.91 842 24.86 -23.3 -9.9 73 -26.9 -16.4 -22.79 -0.897
16:07 1013 29.91 842 24.86 -23.3 -10 73 -26.9 -16.4 -22.79 -0.897
16:08 1013 29.91 842 24.86 -23.3 -10 73 -26.9 -16.5 -22.84 -0.899
16:09 1013 29.91 842 24.86 -23.3 -10 73 -27 -16.6 -22.86 -0.9
16:10 1013 29.91 842 24.86 -23.3 -10 73 -27 -16.6 -22.87 -0.9
16:11 1013 29.91 842 24.86 -23.4 -10.1 73 -27 -16.6 -22.94 -0.903
16:12 1013 29.91 842 24.86 -23.4 -10.1 73 -26.9 -16.5 -22.95 -0.904
16:13 1013 29.91 842 24.86 -23.4 -10.2 73 -27 -16.6 -22.97 -0.904
16:14 1013 29.91 842 24.86 -23.4 -10.1 73 -27 -16.6 -22.96 -0.904
16:15 1013 29.91 842 24.86 -23.5 -10.3 72 -27.2 -17 -23.07 -0.908
16:16 1013 29.91 842 24.86 -23.6 -10.4 73 -27.1 -16.7 -23.13 -0.911
16:17 1013 29.91 842 24.86 -23.6 -10.4 74 -27 -16.6 -23.13 -0.911
16:18 1013 29.91 842 24.86 -23.6 -10.5 73 -27.1 -16.8 -23.14 -0.911
16:19 1013 29.91 842 24.86 -23.6 -10.5 74 -27.1 -16.7 -23.21 -0.914
16:20 1013 29.91 842 24.86 -23.6 -10.5 74 -27 -16.6 -23.18 -0.913
16:21 1013 29.91 842 24.86 -23.6 -10.4 74 -26.9 -16.5 -23.15 -0.911
16:22 1013 29.91 842 24.86 -23.6 -10.4 74 -26.9 -16.5 -23.15 -0.911
16:23 1013 29.91 842 24.86 -23.5 -10.3 74 -26.9 -16.4 -23.12 -0.91
16:24 1013 29.91 842 24.86 -23.5 -10.4 74 -26.9 -16.5 -23.06 -0.908
16:25 1013 29.91 842 24.86 -23.5 -10.4 74 -27 -16.6 -23.09 -0.909
16:26 1013 29.91 842 24.86 -23.9 -10.9 69 -28 -18.4 -23.51 -0.926
16:27 1013 29.91 842 24.86 -24.3 -11.7 72 -28 -18.4 -23.93 -0.942
16:28 1013 29.91 842 24.86 -24.4 -11.8 74 -27.8 -18 -23.98 -0.944
16:29 1013 29.91 842 24.86 -24.4 -11.9 75 -27.6 -17.7 -24 -0.945
16:30 1013 29.91 842 24.86 -24.4 -11.9 76 -27.5 -17.5 -23.97 -0.944
16:31 1013 29.91 842 24.86 -24.3 -11.8 77 -27.3 -17.2 -23.88 -0.94
16:32 1013 29.91 842 24.86 -24.3 -11.7 77 -27.2 -17 -23.81 -0.937
16:33 1013 29.91 842 24.86 -24.2 -11.5 77 -27.2 -16.9 -23.72 -0.934
16:34 1013 29.91 842 24.86 -24.1 -11.3 76 -27.2 -16.9 -23.64 -0.931
16:35 1013 29.91 842 24.86 -24.1 -11.3 76 -27.2 -17 -23.65 -0.931
16:36 1013 29.91 842 24.86 -24.1 -11.3 76 -27.1 -16.9 -23.63 -0.93
16:37 1013 29.91 842 24.86 -24.1 -11.3 74 -27.4 -17.4 -23.66 -0.931
16:38 1013 29.91 842 24.86 -24.8 -12.7 66 -29.4 -20.9 -24.49 -0.964
16:39 1013 29.91 842 24.86 -25.4 -13.6 73 -28.9 -20 -25.03 -0.985
16:40 1013 29.91 842 24.86 -25.3 -13.5 78 -28 -18.4 -24.9 -0.98
16:41 1013 29.91 842 24.86 -25 -13 79 -27.6 -17.7 -24.63 -0.97
16:42 1013 29.91 842 24.86 -24.8 -12.6 79 -27.4 -17.4 -24.4 -0.961
16:43 1013 29.91 842 24.86 -24.6 -12.3 79 -27.3 -17.2 -24.25 -0.955
16:44 1013 29.91 842 24.86 -24.6 -12.2 77 -27.6 -17.6 -24.11 -0.949
16:45 1013 29.91 842 24.86 -25.1 -13.1 68 -29.3 -20.8 -24.67 -0.971
16:46 1013 29.91 842 24.86 -25.8 -14.4 71 -29.7 -21.4 -25.23 -0.993
16:47 1013 29.91 842 24.86 -26 -14.7 76 -29.1 -20.3 -25.46 -1.002
16:48 1013 29.91 842 24.86 -25.8 -14.4 80 -28.3 -18.9 -25.27 -0.995
16:49 1013 29.91 842 24.86 -25.6 -14.1 77 -28.5 -19.3 -25.12 -0.989
16:50 1013 29.91 842 24.86 -25.8 -14.4 76 -28.9 -20 -25.3 -0.996
16:51 1013 29.91 842 24.86 -25.8 -14.4 79 -28.4 -19 -25.28 -0.995
16:52 1013 29.91 842 24.86 -25.5 -13.9 80 -28.1 -18.5 -25.12 -0.989
16:53 1013 29.91 842 24.86 -25.5 -13.9 77 -28.4 -19.1 -25.12 -0.989
16:54 1013 29.91 842 24.86 -25.9 -14.5 73 -29.4 -20.9 -25.4 -1
16:55 1013 29.91 842 24.86 -26.3 -15.4 72 -30 -22 -25.88 -1.019
16:56 1013 29.91 842 24.86 -26.1 -15 81 -28.5 -19.3 -25.73 -1.013
16:57 1013 29.91 842 24.86 -25.8 -14.4 75 -28.9 -20.1 -25.39 -1
16:58 1013 29.91 842 24.86 -26.2 -15.1 74 -29.6 -21.3 -25.69 -1.011
16:59 1013 29.91 842 24.86 -26.4 -15.6 74 -29.7 -21.5 -25.88 -1.019
17:00 1013 29.91 842 24.86 -26.7 -16 75 -29.9 -21.9 -26.12 -1.028
17:01 1013 29.91 842 24.86 -26.7 -16 77 -29.5 -21.2 -26.09 -1.027
17:02 1013 29.91 842 24.86 -26.6 -15.8 77 -29.5 -21 -26.07 -1.026
17:03 1013 29.91 842 24.86 -26.6 -15.8 78 -29.3 -20.7 -26.1 -1.028
17:04 1013 29.91 842 24.86 -26.2 -15.2 81 -28.6 -19.4 -25.87 -1.019
17:05 1013 29.91 842 24.86 -25.8 -14.4 82 -28 -18.4 -25.52 -1.005
17:06 1013 29.91 842 24.86 -25.4 -13.8 80 -27.9 -18.2 -25.23 -0.993
17:07 1013 29.91 842 24.86 -25.2 -13.4 79 -27.9 -18.2 -25.03 -0.985
17:08 1013 29.91 842 24.86 -25.1 -13.1 77 -28 -18.3 -24.79 -0.976
17:09 1013 29.91 842 24.86 -25 -13 76 -28.1 -18.6 -24.7 -0.972
17:10 1013 29.91 842 24.86 -24.9 -12.8 74 -28.3 -18.9 -24.66 -0.971
17:11 1013 29.91 842 24.86 -24.9 -12.9 75 -28.2 -18.8 -24.61 -0.969
17:12 1013 29.91 842 24.86 -24.8 -12.7 73 -28.4 -19.1 -24.59 -0.968
17:13 1013 29.91 842 24.86 -24.9 -12.7 72 -28.5 -19.3 -24.57 -0.967
17:14 1013 29.91 842 24.86 -24.9 -12.8 72 -28.6 -19.5 -24.59 -0.968
17:15 1013 29.91 842 24.86 -24.9 -12.8 71 -28.7 -19.6 -24.57 -0.967
17:16 1013 29.91 842 24.86 -24.8 -12.6 72 -28.4 -19.1 -24.51 -0.965
17:17 1013 29.91 842 24.86 -24.8 -12.6 71 -28.6 -19.4 -24.51 -0.965
17:18 1013 29.91 842 24.86 -24.8 -12.6 70 -28.7 -19.7 -24.49 -0.964
17:19 1013 29.91 842 24.86 -25 -12.9 69 -29 -20.3 -24.64 -0.97
17:20 1013 29.91 842 24.86 -25 -13 70 -29 -20.1 -24.69 -0.972
17:21 1013 29.91 842 24.86 -25 -12.9 71 -28.8 -19.8 -24.6 -0.969
17:22 1013 29.91 842 24.86 -24.8 -12.7 71 -28.7 -19.7 -24.49 -0.964
17:23 1013 29.91 842 24.86 -24.9 -12.8 68 -29.2 -20.6 -24.54 -0.966
17:24 1013 29.91 842 24.86 -24.8 -12.7 71 -28.7 -19.7 -24.44 -0.962
17:25 1013 29.91 842 24.86 -24.7 -12.4 70 -28.7 -19.6 -24.32 -0.957
17:26 1013 29.91 842 24.86 -24.5 -12.1 70 -28.5 -19.3 -24.2 -0.953
17:27 1013 29.91 842 24.86 -24.4 -11.9 68 -28.7 -19.7 -24.04 -0.946
17:28 1013 29.91 842 24.86 -24.4 -11.9 68 -28.7 -19.7 -24.02 -0.946
17:29 1013 29.91 842 24.86 -24.3 -11.8 66 -28.9 -20.1 -24 -0.945
17:30 1013 29.91 842 24.86 -24.5 -12 67 -28.9 -20.1 -24.08 -0.948
17:31 1013 29.91 842 24.86 -24.5 -12.1 66 -29.1 -20.4 -24.12 -0.95
17:32 1013 29.91 842 24.86 -24.6 -12.2 65 -29.3 -20.8 -24.23 -0.954
17:33 1013 29.91 842 24.86 -24.8 -12.7 65 -29.6 -21.4 -24.45 -0.963
17:34 1013 29.91 842 24.86 -25 -13.1 66 -29.7 -21.4 -24.65 -0.97
17:35 1013 29.91 842 24.86 -25.1 -13.2 67 -29.5 -21.1 -24.72 -0.973
17:36 1013 29.91 842 24.86 -25.2 -13.3 67 -29.6 -21.2 -24.79 -0.976
17:37 1013 29.91 842 24.86 -25.2 -13.3 68 -29.4 -20.9 -24.78 -0.976
17:38 1013 29.91 842 24.86 -25.3 -13.6 68 -29.7 -21.4 -24.92 -0.981
17:39 1013 29.91 842 24.86 -25.4 -13.7 68 -29.7 -21.4 -24.98 -0.983
17:40 1013 29.91 842 24.86 -25.4 -13.7 68 -29.7 -21.4 -24.98 -0.983
17:41 1013 29.91 842 24.86 -25.4 -13.8 68 -29.8 -21.6 -25.06 -0.987
17:42 1013 29.91 842 24.86 -25.5 -13.9 69 -29.6 -21.2 -25.09 -0.988
17:43 1013 29.91 842 24.86 -25.4 -13.8 70 -29.5 -21 -25.04 -0.986
17:44 1013 29.91 842 24.86 -25.4 -13.7 69 -29.5 -21.1 -25.05 -0.986
17:45 1013 29.91 842 24.86 -25.5 -13.8 67 -30 -21.9 -25.09 -0.988
17:46 1013 29.91 842 24.86 -25.9 -14.5 65 -30.7 -23.2 -25.41 -1
17:47 1013 29.91 842 24.86 -26.3 -15.3 65 -31 -23.8 -25.87 -1.019
17:48 1013 29.91 842 24.86 -26.7 -16 69 -30.7 -23.2 -26.16 -1.03
17:49 1013 29.91 842 24.86 -26.3 -15.3 75 -29.4 -21 -25.6 -1.008
17:50 1013 29.91 842 24.86 -25.6 -14.1 74 -29 -20.2 -24.92 -0.981
17:51 1013 29.91 842 24.86 -25 -13 72 -28.7 -19.7 -24.42 -0.961
17:52 1013 29.91 842 24.86 -24.6 -12.3 70 -28.6 -19.5 -24.13 -0.95
17:53 1013 29.91 842 24.86 -24.4 -11.9 69 -28.6 -19.4 -23.93 -0.942
17:54 1013 29.91 842 24.86 -24.3 -11.7 69 -28.4 -19.2 -23.81 -0.937
17:55 1013 29.91 842 24.86 -24.2 -11.5 68 -28.5 -19.4 -23.76 -0.935
17:56 1013 29.91 842 24.86 -24.1 -11.4 68 -28.4 -19.2 -23.68 -0.932
17:57 1013 29.91 842 24.86 -24 -11.3 67 -28.5 -19.2 -23.64 -0.931
17:58 1013 29.91 842 24.86 -24.1 -11.4 67 -28.5 -19.3 -23.68 -0.932
17:59 1013 29.91 842 24.86 -24.1 -11.4 68 -28.5 -19.3 -23.72 -0.934
18:00 1013 29.91 842 24.86 -24.1 -11.4 68 -28.5 -19.2 -23.68 -0.932
18:01 1013 29.91 842 24.86 -24.1 -11.3 68 -28.4 -19.1 -23.62 -0.93
18:02 1013 29.91 842 24.86 -24.1 -11.3 68 -28.4 -19.2 -23.61 -0.93
18:03 1013 29.91 842 24.86 -24.1 -11.3 68 -28.4 -19.2 -23.57 -0.928
18:04 1013 29.91 842 24.86 -24 -11.2 67 -28.4 -19.2 -23.52 -0.926
18:05 1013 29.91 842 24.86 -24 -11.1 67 -28.4 -19.1 -23.52 -0.926
18:06 1013 29.91 842 24.86 -23.9 -11 68 -28.3 -18.9 -23.44 -0.923
18:07 1013 29.91 842 24.86 -23.9 -11 67 -28.3 -19 -23.41 -0.922
18:08 1013 29.91 842 24.86 -23.9 -10.9 67 -28.4 -19 -23.39 -0.921
18:09 1013 29.91 842 24.86 -23.8 -10.9 67 -28.3 -19 -23.41 -0.922
18:10 1013 29.91 842 24.86 -23.8 -10.9 67 -28.3 -19 -23.37 -0.92
18:11 1013 29.91 842 24.86 -23.8 -10.8 67 -28.3 -18.9 -23.37 -0.92
18:12 1013 29.91 842 24.86 -23.8 -10.8 67 -28.3 -19 -23.27 -0.916
18:13 1013 29.91 842 24.86 -23.7 -10.7 66 -28.4 -19.1 -23.33 -0.919
18:14 1013 29.91 842 24.86 -23.8 -10.9 67 -28.4 -19.1 -23.4 -0.921
18:15 1013 29.91 842 24.86 -23.9 -11 67 -28.3 -19 -23.42 -0.922
18:16 1013 29.91 842 24.86 -23.9 -11.1 67 -28.4 -19.2 -23.49 -0.925
18:17 1013 29.91 842 24.86 -24 -11.1 68 -28.4 -19.1 -23.53 -0.926
18:18 1013 29.91 842 24.86 -24 -11.2 67 -28.5 -19.3 -23.54 -0.927
18:19 1013 29.91 842 24.86 -24 -11.2 67 -28.5 -19.3 -23.6 -0.929
18:20 1013 29.91 842 24.86 -24.1 -11.4 65 -28.9 -20 -23.73 -0.934
18:21 1013 29.91 842 24.86 -24.5 -12 64 -29.5 -21.1 -24.08 -0.948
18:22 1013 29.91 842 24.86 -24.8 -12.7 65 -29.6 -21.3 -24.4 -0.961
18:23 1013 29.91 842 24.86 -25.1 -13.1 67 -29.6 -21.2 -24.62 -0.969
18:24 1013 29.91 842 24.86 -25.2 -13.4 68 -29.6 -21.3 -24.8 -0.976
18:25 1013 29.91 842 24.86 -25.3 -13.6 67 -29.7 -21.5 -24.91 -0.981
18:26 1013 29.91 842 24.86 -25.4 -13.7 69 -29.5 -21.1 -24.94 -0.982
18:27 1013 29.91 842 24.86 -25.4 -13.7 69 -29.5 -21.2 -24.93 -0.981
18:28 1013 29.91 842 24.86 -25.4 -13.7 69 -29.6 -21.2 -24.95 -0.982
18:29 1013 29.91 842 24.86 -25.4 -13.8 69 -29.6 -21.3 -25.03 -0.985
18:30 1013 29.91 842 24.86 -25.5 -13.9 69 -29.7 -21.5 -25.1 -0.988
18:31 1013 29.91 842 24.86 -25.5 -14 69 -29.7 -21.4 -25.14 -0.99
18:32 1013 29.91 842 24.86 -25.6 -14 69 -29.7 -21.5 -25.16 -0.991
18:33 1013 29.91 842 24.86 -25.5 -14 69 -29.6 -21.3 -25.15 -0.99
18:34 1013 29.91 842 24.86 -25.6 -14 68 -29.8 -21.7 -25.13 -0.989
18:35 1013 29.91 842 24.86 -25.7 -14.2 66 -30.2 -22.4 -25.33 -0.997
18:36 1013 29.91 842 24.86 -25.9 -14.7 68 -30.2 -22.4 -25.5 -1.004
18:37 1013 29.91 842 24.86 -26 -14.7 70 -29.8 -21.7 -25.51 -1.004
18:38 1013 29.91 842 24.86 -25.9 -14.6 71 -29.7 -21.4 -25.4 -1
18:39 1013 29.91 842 24.86 -25.8 -14.4 69 -29.8 -21.7 -25.31 -0.996
18:40 1013 29.91 842 24.86 -25.9 -14.6 66 -30.4 -22.8 -25.51 -1.004
18:41 1013 29.91 842 24.86 -26.2 -15.1 70 -30.2 -22.4 -25.75 -1.014
18:42 1013 29.91 842 24.86 -26.2 -15.2 68 -30.5 -22.9 -25.8 -1.016
18:43 1013 29.91 842 24.86 -26.6 -15.8 67 -30.9 -23.7 -26.1 -1.028
18:44 1013 29.91 842 24.86 -26.9 -16.4 69 -31 -23.8 -26.51 -1.044
18:45 1013 29.91 842 24.86 -27 -16.6 68 -31.3 -24.3 -26.65 -1.049
18:46 1013 29.91 842 24.86 -27.3 -17.1 70 -31.2 -24.2 -26.92 -1.06
18:47 1013 29.91 842 24.86 -27.3 -17.1 72 -30.9 -23.7 -26.93 -1.06
18:48 1013 29.91 842 24.86 -27.2 -17 71 -31 -23.8 -26.88 -1.058
18:49 1013 29.91 842 24.86 -27.3 -17.1 70 -31.2 -24.2 -26.94 -1.061
18:50 1013 29.91 842 24.86 -27.4 -17.3 71 -31.2 -24.2 -27.02 -1.064
18:51 1013 29.91 842 24.86 -27.5 -17.5 69 -31.5 -24.7 -27.09 -1.067
18:52 1013 29.91 842 24.86 -27.5 -17.6 71 -31.3 -24.3 -27.15 -1.069
18:53 1013 29.91 842 24.86 -27.5 -17.4 71 -31.2 -24.1 -27.09 -1.067
18:54 1013 29.91 842 24.86 -27.5 -17.5 71 -31.2 -24.2 -27.13 -1.068
18:55 1013 29.91 842 24.86 -27.2 -16.9 75 -30.4 -22.7 -26.8 -1.055
18:56 1013 29.91 842 24.86 -26.9 -16.3 73 -30.4 -22.7 -26.51 -1.044
18:57 1013 29.91 842 24.86 -26.6 -15.8 73 -30 -22.1 -26.2 -1.031
18:58 1013 29.91 842 24.86 -26.6 -15.8 68 -30.8 -23.4 -26.18 -1.031
18:59 1013 29.91 842 24.86 -26.8 -16.3 69 -30.9 -23.7 -26.35 -1.037
19:00 1013 29.91 842 24.86 -27.1 -16.7 68 -31.3 -24.4 -26.58 -1.046
19:01 1013 29.91 842 24.86 -27.2 -17 69 -31.3 -24.4 -26.76 -1.054
19:02 1013 29.91 842 24.86 -27.3 -17.2 72 -31 -23.7 -26.81 -1.056
19:03 1013 29.91 842 24.86 -26.9 -16.5 75 -30.1 -22.3 -26.48 -1.043
19:04 1012 29.88 842 24.86 -26.6 -15.8 72 -30.2 -22.4 -26.11 -1.028
19:05 1013 29.91 842 24.86 -26.3 -15.4 72 -29.9 -21.9 -25.92 -1.02
19:06 1013 29.91 842 24.86 -26.3 -15.4 68 -30.6 -23 -25.88 -1.019
19:07 1013 29.91 842 24.86 -26.4 -15.5 70 -30.4 -22.6 -25.94 -1.021
19:08 1013 29.91 842 24.86 -26.4 -15.5 70 -30.4 -22.7 -25.96 -1.022
19:09 1013 29.91 842 24.86 -26.4 -15.6 68 -30.7 -23.2 -26.03 -1.025
19:10 1013 29.91 842 24.86 -26.6 -15.9 69 -30.7 -23.3 -26.18 -1.031
19:11 1013 29.91 842 24.86 -26.8 -16.2 69 -30.9 -23.6 -26.29 -1.035
19:12 1013 29.91 842 24.86 -26.8 -16.3 69 -31 -23.7 -26.37 -1.038
19:13 1013 29.91 842 24.86 -26.9 -16.5 71 -30.7 -23.3 -26.49 -1.043
19:14 1013 29.91 842 24.86 -26.8 -16.3 72 -30.5 -23 -26.43 -1.041
19:15 1013 29.91 842 24.86 -26.7 -16.1 72 -30.3 -22.6 -26.26 -1.034
19:16 1013 29.91 842 24.86 -26.5 -15.7 72 -30.1 -22.3 -26.08 -1.027
19:17 1013 29.91 842 24.86 -26.5 -15.7 68 -30.8 -23.4 -26.09 -1.027
19:18 1013 29.91 842 24.86 -26.4 -15.6 73 -29.9 -21.8 -26.01 -1.024
19:19 1013 29.91 842 24.86 -26.1 -14.9 71 -29.9 -21.7 -25.57 -1.007
19:20 1013 29.91 842 24.86 -26.1 -15 67 -30.5 -22.9 -25.68 -1.011
19:21 1013 29.91 842 24.86 -26.4 -15.5 65 -31.1 -24 -26.01 -1.024
19:22 1013 29.91 842 24.86 -26.7 -16.1 69 -30.8 -23.4 -26.28 -1.035
19:23 1013 29.91 842 24.86 -26.7 -16.1 70 -30.6 -23.2 -26.29 -1.035
19:24 1013 29.91 842 24.86 -26.7 -16 69 -30.7 -23.2 -26.23 -1.033
19:25 1013 29.91 842 24.86 -26.7 -16 70 -30.7 -23.2 -26.27 -1.034
19:26 1013 29.91 842 24.86 -26.7 -16 69 -30.8 -23.5 -26.28 -1.035
19:27 1013 29.91 842 24.86 -26.8 -16.2 69 -30.8 -23.5 -26.4 -1.039
19:28 1013 29.91 842 24.86 -26.7 -16.1 71 -30.5 -22.9 -26.34 -1.037
19:29 1013 29.91 842 24.86 -26.6 -15.9 70 -30.6 -23.1 -26.27 -1.034
19:30 1013 29.91 842 24.86 -26.6 -15.9 70 -30.6 -23.1 -26.27 -1.034
19:31 1012 29.88 842 24.86 -26.5 -15.7 71 -30.3 -22.5 -26.14 -1.029
19:32 1012 29.88 842 24.86 -26.2 -15.1 72 -29.8 -21.7 -25.82 -1.017
19:33 1012 29.88 842 24.86 -25.9 -14.6 70 -29.9 -21.9 -25.58 -1.007
19:34 1012 29.88 842 24.86 -25.8 -14.5 68 -30.1 -22.2 -25.47 -1.003
19:35 1012 29.88 842 24.86 -25.9 -14.5 69 -29.9 -21.8 -25.5 -1.004
19:36 1012 29.88 842 24.86 -25.8 -14.5 70 -29.9 -21.8 -25.42 -1.001
19:37 1013 29.91 842 24.86 -25.7 -14.3 69 -29.8 -21.7 -25.31 -0.996
19:38 1012 29.88 842 24.86 -25.6 -14 70 -29.6 -21.2 -25.13 -0.989
19:39 1012 29.88 842 24.86 -25.4 -13.6 69 -29.5 -21.1 -24.94 -0.982
19:40 1012 29.88 842 24.86 -25.3 -13.5 68 -29.6 -21.2 -24.89 -0.98
19:41 1012 29.88 842 24.86 -25.3 -13.5 68 -29.6 -21.3 -24.9 -0.98
19:42 1012 29.88 842 24.86 -25.3 -13.6 68 -29.7 -21.4 -24.97 -0.983
19:43 1012 29.88 842 24.86 -25.4 -13.8 68 -29.8 -21.6 -25.03 -0.985
19:44 1012 29.88 842 24.86 -25.5 -13.9 68 -29.8 -21.7 -25.1 -0.988
19:45 1012 29.88 842 24.86 -25.5 -13.9 69 -29.7 -21.4 -25.05 -0.986
19:46 1012 29.88 842 24.86 -25.4 -13.7 69 -29.6 -21.2 -24.96 -0.983
19:47 1012 29.88 842 24.86 -25.3 -13.5 68 -29.5 -21.1 -24.86 -0.979
19:48 1012 29.88 842 24.86 -25.2 -13.3 68 -29.5 -21.1 -24.78 -0.976
19:49 1012 29.88 842 24.86 -25.2 -13.3 68 -29.5 -21.1 -24.75 -0.974
19:50 1012 29.88 842 24.86 -25.2 -13.3 67 -29.6 -21.3 -24.75 -0.974
19:51 1012 29.88 842 24.86 -25.1 -13.2 69 -29.3 -20.7 -24.7 -0.972
19:52 1012 29.88 842 24.86 -24.9 -12.8 67 -29.3 -20.7 -24.45 -0.963
19:53 1013 29.91 842 24.86 -24.9 -12.7 66 -29.4 -21 -24.48 -0.964
19:54 1013 29.91 842 24.86 -24.9 -12.8 67 -29.4 -21 -24.54 -0.966
19:55 1012 29.88 842 24.86 -25 -12.9 68 -29.3 -20.8 -24.58 -0.968
19:56 1012 29.88 842 24.86 -24.9 -12.9 67 -29.5 -21 -24.55 -0.967
19:57 1013 29.91 842 24.86 -25 -13 67 -29.5 -21.1 -24.56 -0.967
19:58 1012 29.88 842 24.86 -25 -13 66 -29.6 -21.2 -24.64 -0.97
19:59 1012 29.88 842 24.86 -25 -13.1 67 -29.5 -21.1 -24.64 -0.97
20:00 1012 29.88 842 24.86 -25 -13 68 -29.3 -20.8 -24.56 -0.967
20:01 1012 29.88 842 24.86 -24.9 -12.7 67 -29.3 -20.8 -24.48 -0.964
20:02 1012 29.88 842 24.86 -24.8 -12.6 67 -29.3 -20.7 -24.37 -0.959
20:03 1012 29.88 842 24.86 -24.7 -12.5 66 -29.3 -20.8 -24.35 -0.959
20:04 1012 29.88 842 24.86 -24.7 -12.5 67 -29.3 -20.7 -24.33 -0.958
20:05 1013 29.91 842 24.86 -24.7 -12.5 66 -29.4 -20.8 -24.37 -0.959
20:06 1013 29.91 842 24.86 -24.8 -12.7 66 -29.4 -21 -24.43 -0.962
20:07 1013 29.91 842 24.86 -24.8 -12.7 67 -29.4 -20.9 -24.46 -0.963
20:08 1013 29.91 842 24.86 -24.9 -12.7 66 -29.4 -21 -24.45 -0.963
20:09 1012 29.88 842 24.86 -24.9 -12.8 66 -29.5 -21.1 -24.49 -0.964
20:10 1012 29.88 842 24.86 -24.9 -12.9 67 -29.4 -20.9 -24.49 -0.964
20:11 1012 29.88 842 24.86 -24.9 -12.8 67 -29.4 -20.9 -24.45 -0.963
20:12 1012 29.88 842 24.86 -24.9 -12.8 66 -29.5 -21 -24.48 -0.964
20:13 1012 29.88 842 24.86 -24.9 -12.8 67 -29.4 -21 -24.46 -0.963
20:14 1012 29.88 842 24.86 -24.9 -12.8 66 -29.5 -21.2 -24.49 -0.964
20:15 1012 29.88 842 24.86 -25 -12.9 67 -29.5 -21.1 -24.57 -0.967
20:16 1012 29.88 842 24.86 -25 -13 67 -29.5 -21.1 -24.58 -0.968
20:17 1012 29.88 842 24.86 -25 -13 67 -29.5 -21 -24.61 -0.969
20:18 1012 29.88 842 24.86 -24.9 -12.9 67 -29.3 -20.8 -24.51 -0.965
20:19 1012 29.88 842 24.86 -24.9 -12.7 67 -29.4 -20.9 -24.41 -0.961
20:20 1012 29.88 842 24.86 -24.8 -12.6 67 -29.2 -20.6 -24.37 -0.959
20:21 1012 29.88 842 24.86 -24.7 -12.4 67 -29.2 -20.5 -24.16 -0.951
20:22 1012 29.88 842 24.86 -24.5 -12.1 66 -29.2 -20.5 -24.1 -0.949
20:23 1012 29.88 842 24.86 -24.4 -12 65 -29.2 -20.6 -24.04 -0.946
20:24 1012 29.88 842 24.86 -24.5 -12 66 -29.2 -20.5 -24.02 -0.946
20:25 1012 29.88 842 24.86 -24.5 -12 65 -29.2 -20.6 -24.04 -0.946
20:26 1012 29.88 842 24.86 -24.5 -12.1 65 -29.3 -20.7 -24.11 -0.949
20:27 1012 29.88 842 24.86 -24.6 -12.3 65 -29.4 -21 -24.23 -0.954
20:28 1012 29.88 842 24.86 -24.8 -12.7 66 -29.5 -21.1 -24.39 -0.96
20:29 1012 29.88 842 24.86 -24.9 -12.8 67 -29.4 -20.9 -24.45 -0.963
20:30 1012 29.88 842 24.86 -24.9 -12.7 66 -29.4 -21 -24.42 -0.961
20:31 1012 29.88 842 24.86 -24.8 -12.7 66 -29.5 -21 -24.4 -0.961
20:32 1012 29.88 842 24.86 -24.9 -12.8 65 -29.6 -21.3 -24.48 -0.964
20:33 1012 29.88 842 24.86 -25 -13 65 -29.7 -21.5 -24.65 -0.97
20:34 1012 29.88 842 24.86 -25.2 -13.3 66 -29.8 -21.6 -24.79 -0.976
20:35 1012 29.88 842 24.86 -25.3 -13.6 67 -29.8 -21.7 -24.89 -0.98
20:36 1012 29.88 842 24.86 -25.4 -13.6 67 -29.8 -21.7 -24.95 -0.982
20:37 1012 29.88 842 24.86 -25.4 -13.7 67 -29.9 -21.8 -24.98 -0.983
20:38 1012 29.88 842 24.86 -25.5 -13.8 67 -29.9 -21.8 -25.07 -0.987
20:39 1012 29.88 842 24.86 -25.5 -13.9 67 -30 -22 -25.1 -0.988
20:40 1012 29.88 842 24.86 -25.6 -14 67 -30 -22 -25.14 -0.99
20:41 1012 29.88 842 24.86 -25.6 -14.1 67 -30.1 -22.1 -25.2 -0.992
20:42 1012 29.88 842 24.86 -25.7 -14.2 67 -30.1 -22.1 -25.26 -0.994
20:43 1012 29.88 842 24.86 -25.7 -14.2 67 -30.1 -22.1 -25.22 -0.993
20:44 1012 29.88 842 24.86 -25.7 -14.3 67 -30.1 -22.2 -25.29 -0.996
20:45 1012 29.88 842 24.86 -25.7 -14.3 68 -30.1 -22.1 -25.31 -0.996
20:46 1012 29.88 842 24.86 -25.7 -14.3 67 -30.2 -22.3 -25.34 -0.998
20:47 1012 29.88 841 24.83 -25.8 -14.4 67 -30.2 -22.4 -25.36 -0.998
20:48 1012 29.88 841 24.83 -25.9 -14.5 68 -30.2 -22.3 -25.44 -1.002
20:49 1012 29.88 842 24.86 -25.9 -14.5 68 -30.2 -22.3 -25.44 -1.002
20:50 1012 29.88 841 24.83 -25.8 -14.5 68 -30.1 -22.2 -25.41 -1
20:51 1012 29.88 842 24.86 -25.8 -14.4 68 -30.1 -22.2 -25.38 -0.999
20:52 1012 29.88 841 24.83 -25.8 -14.4 68 -30.1 -22.1 -25.38 -0.999
20:53 1012 29.88 841 24.83 -25.7 -14.2 68 -29.9 -21.9 -25.3 -0.996
20:54 1012 29.88 842 24.86 -25.7 -14.2 68 -30 -22 -25.25 -0.994
20:55 1012 29.88 841 24.83 -25.6 -14.1 67 -30 -22 -25.23 -0.993
20:56 1012 29.88 841 24.83 -25.7 -14.2 68 -30 -22 -25.26 -0.994
20:57 1012 29.88 841 24.83 -25.7 -14.2 68 -30 -22 -25.28 -0.995
20:58 1012 29.88 841 24.83 -25.7 -14.2 68 -29.9 -21.8 -25.25 -0.994
20:59 1012 29.88 841 24.83 -25.6 -14.1 68 -29.9 -21.7 -25.19 -0.992
21:00 1012 29.88 841 24.83 -25.6 -14 68 -29.9 -21.8 -25.16 -0.991
21:01 1012 29.88 841 24.83 -25.5 -14 68 -29.9 -21.8 -25.15 -0.99
21:02 1012 29.88 841 24.83 -25.6 -14 68 -29.8 -21.7 -25.18 -0.991
21:03 1012 29.88 841 24.83 -25.5 -13.9 68 -29.8 -21.7 -25.1 -0.988
21:04 1012 29.88 841 24.83 -25.4 -13.8 68 -29.7 -21.4 -24.99 -0.984
21:05 1012 29.88 841 24.83 -25.3 -13.6 68 -29.6 -21.3 -24.92 -0.981
21:06 1012 29.88 841 24.83 -25.2 -13.3 68 -29.4 -21 -24.78 -0.976
21:07 1012 29.88 841 24.83 -25 -13 68 -29.3 -20.8 -24.58 -0.968
21:08 1012 29.88 841 24.83 -24.9 -12.8 67 -29.4 -20.9 -24.53 -0.966
21:09 1012 29.88 841 24.83 -24.9 -12.8 67 -29.3 -20.8 -24.52 -0.965
21:10 1012 29.88 841 24.83 -24.9 -12.8 68 -29.2 -20.6 -24.46 -0.963
21:11 1012 29.88 841 24.83 -24.8 -12.6 67 -29.3 -20.8 -24.36 -0.959
21:12 1012 29.88 841 24.83 -24.8 -12.6 67 -29.3 -20.7 -24.35 -0.959
21:13 1012 29.88 841 24.83 -24.8 -12.6 67 -29.3 -20.7 -24.35 -0.959
21:14 1012 29.88 841 24.83 -24.7 -12.5 67 -29.2 -20.6 -24.31 -0.957
21:15 1012 29.88 841 24.83 -24.7 -12.4 67 -29.2 -20.6 -24.26 -0.955
21:16 1012 29.88 841 24.83 -24.7 -12.4 67 -29.2 -20.5 -24.23 -0.954
21:17 1012 29.88 841 24.83 -24.6 -12.3 66 -29.3 -20.7 -24.22 -0.954
21:18 1012 29.88 841 24.83 -24.6 -12.3 66 -29.3 -20.7 -24.2 -0.953
21:19 1012 29.88 841 24.83 -24.7 -12.4 66 -29.4 -20.8 -24.23 -0.954
21:20 1012 29.88 841 24.83 -24.7 -12.4 67 -29.2 -20.5 -24.23 -0.954
21:21 1012 29.88 841 24.83 -24.6 -12.2 66 -29.2 -20.5 -24.18 -0.952
21:22 1012 29.88 841 24.83 -24.6 -12.3 66 -29.3 -20.7 -24.19 -0.952
21:23 1012 29.88 841 24.83 -24.6 -12.3 66 -29.3 -20.7 -24.18 -0.952
21:24 1012 29.88 841 24.83 -24.6 -12.3 66 -29.3 -20.7 -24.17 -0.952
21:25 1012 29.88 841 24.83 -24.6 -12.2 66 -29.2 -20.6 -24.16 -0.951
21:26 1012 29.88 841 24.83 -24.6 -12.3 66 -29.3 -20.8 -24.17 -0.952
21:27 1012 29.88 841 24.83 -24.6 -12.3 66 -29.2 -20.6 -24.14 -0.95
21:28 1012 29.88 841 24.83 -24.5 -12.2 66 -29.3 -20.7 -24.14 -0.95
21:29 1012 29.88 841 24.83 -24.6 -12.2 66 -29.2 -20.6 -24.14 -0.95
21:30 1012 29.88 841 24.83 -24.6 -12.3 66 -29.3 -20.7 -24.17 -0.952
21:31 1012 29.88 841 24.83 -24.7 -12.4 66 -29.3 -20.7 -24.22 -0.954
21:32 1012 29.88 841 24.83 -24.7 -12.4 66 -29.3 -20.8 -24.27 -0.956
21:33 1012 29.88 841 24.83 -24.7 -12.5 66 -29.3 -20.8 -24.26 -0.955
21:34 1012 29.88 841 24.83 -24.7 -12.4 66 -29.3 -20.8 -24.29 -0.956
21:35 1012 29.88 841 24.83 -24.8 -12.6 66 -29.4 -21 -24.34 -0.958
21:36 1012 29.88 841 24.83 -24.8 -12.6 67 -29.4 -20.8 -24.33 -0.958
21:37 1012 29.88 841 24.83 -24.8 -12.6 66 -29.4 -20.8 -24.32 -0.957
21:38 1012 29.88 841 24.83 -24.8 -12.6 65 -29.5 -21.1 -24.3 -0.957
21:39 1012 29.88 841 24.83 -24.8 -12.6 66 -29.4 -21 -24.37 -0.959
21:40 1012 29.88 841 24.83 -24.8 -12.6 65 -29.5 -21.1 -24.36 -0.959
21:41 1012 29.88 841 24.83 -24.8 -12.6 65 -29.6 -21.2 -24.39 -0.96
21:42 1012 29.88 841 24.83 -24.9 -12.8 65 -29.7 -21.5 -24.54 -0.966
21:43 1012 29.88 841 24.83 -25.1 -13.2 65 -29.9 -21.9 -24.73 -0.974
21:44 1012 29.88 841 24.83 -25.3 -13.5 66 -29.8 -21.7 -24.84 -0.978
21:45 1012 29.88 841 24.83 -25.3 -13.5 66 -29.9 -21.7 -24.86 -0.979
21:46 1012 29.88 841 24.83 -25.3 -13.6 66 -29.9 -21.9 -24.87 -0.979
21:47 1012 29.88 841 24.83 -25.4 -13.7 66 -29.9 -21.9 -24.96 -0.983
21:48 1012 29.88 841 24.83 -25.4 -13.7 67 -29.9 -21.8 -24.98 -0.983
21:49 1012 29.88 841 24.83 -25.3 -13.6 68 -29.7 -21.4 -24.89 -0.98
21:50 1012 29.88 841 24.83 -25.2 -13.3 67 -29.7 -21.4 -24.75 -0.974
21:51 1012 29.88 841 24.83 -25.1 -13.2 67 -29.5 -21.2 -24.64 -0.97
21:52 1012 29.88 841 24.83 -25 -12.9 66 -29.5 -21.2 -24.49 -0.964
21:53 1012 29.88 841 24.83 -24.9 -12.9 66 -29.6 -21.3 -24.52 -0.965
21:54 1012 29.88 841 24.83 -24.9 -12.9 66 -29.6 -21.2 -24.48 -0.964
21:55 1012 29.88 841 24.83 -24.9 -12.9 66 -29.6 -21.2 -24.47 -0.963
21:56 1012 29.88 841 24.83 -25 -13 64 -30 -22 -24.55 -0.967
21:57 1012 29.88 841 24.83 -25.2 -13.4 64 -30.1 -22.2 -24.87 -0.979
21:58 1012 29.88 841 24.83 -25.5 -13.9 65 -30.4 -22.7 -25.07 -0.987
21:59 1012 29.88 841 24.83 -25.7 -14.3 66 -30.4 -22.6 -25.3 -0.996
22:00 1012 29.88 841 24.83 -25.9 -14.6 66 -30.4 -22.8 -25.44 -1.002
22:01 1012 29.88 841 24.83 -26 -14.8 67 -30.5 -22.9 -25.53 -1.005
22:02 1012 29.88 841 24.83 -26.1 -15 67 -30.6 -23 -25.64 -1.009
22:03 1012 29.88 841 24.83 -26.1 -15.1 68 -30.5 -22.9 -25.69 -1.011
22:04 1012 29.88 841 24.83 -26.1 -15 68 -30.4 -22.7 -25.68 -1.011
22:05 1012 29.88 841 24.83 -26.2 -15.1 67 -30.7 -23.2 -25.77 -1.015
22:06 1012 29.88 841 24.83 -26.3 -15.3 67 -30.7 -23.3 -25.89 -1.019
22:07 1012 29.88 841 24.83 -26.3 -15.4 68 -30.5 -23 -25.9 -1.02
22:08 1012 29.88 841 24.83 -26.3 -15.3 68 -30.5 -22.9 -25.89 -1.019
22:09 1012 29.88 841 24.83 -26.3 -15.3 68 -30.5 -22.9 -25.84 -1.017
22:10 1012 29.88 841 24.83 -26.2 -15.2 69 -30.3 -22.6 -25.8 -1.016
22:11 1012 29.88 841 24.83 -26.1 -15 69 -30.2 -22.4 -25.66 -1.01
22:12 1012 29.88 841 24.83 -25.9 -14.6 69 -30 -21.9 -25.46 -1.002
22:13 1012 29.88 841 24.83 -25.6 -14.1 69 -29.7 -21.5 -25.16 -0.991
22:14 1012 29.88 841 24.83 -25.3 -13.6 68 -29.6 -21.3 -24.87 -0.979
22:15 1012 29.88 841 24.83 -25.1 -13.2 67 -29.6 -21.2 -24.71 -0.973
22:16 1012 29.88 841 24.83 -25.1 -13.1 67 -29.6 -21.2 -24.6 -0.969
22:17 1012 29.88 841 24.83 -25 -13 66 -29.6 -21.3 -24.58 -0.968
22:18 1012 29.88 841 24.83 -25 -13 66 -29.6 -21.3 -24.61 -0.969
22:19 1012 29.88 841 24.83 -25 -13 66 -29.6 -21.3 -24.61 -0.969
22:20 1012 29.88 841 24.83 -25.1 -13.1 66 -29.7 -21.5 -24.61 -0.969
22:21 1012 29.88 841 24.83 -25 -13 66 -29.6 -21.3 -24.6 -0.969
22:22 1012 29.88 841 24.83 -25 -13 66 -29.6 -21.3 -24.56 -0.967
22:23 1012 29.88 841 24.83 -25 -12.9 66 -29.7 -21.4 -24.54 -0.966
22:24 1012 29.88 841 24.83 -25 -13 66 -29.6 -21.3 -24.53 -0.966
22:25 1012 29.88 841 24.83 -25 -12.9 66 -29.7 -21.4 -24.56 -0.967
22:26 1012 29.88 841 24.83 -25 -13 66 -29.6 -21.3 -24.6 -0.969
22:27 1012 29.88 841 24.83 -25 -13 66 -29.6 -21.3 -24.58 -0.968
22:28 1012 29.88 841 24.83 -25 -13 66 -29.6 -21.2 -24.53 -0.966
22:29 1012 29.88 841 24.83 -24.9 -12.9 66 -29.5 -21.2 -24.49 -0.964
22:30 1012 29.88 841 24.83 -24.9 -12.8 66 -29.5 -21.1 -24.5 -0.965
22:31 1012 29.88 841 24.83 -24.9 -12.8 66 -29.5 -21.1 -24.47 -0.963
22:32 1012 29.88 841 24.83 -24.9 -12.8 66 -29.6 -21.2 -24.45 -0.963
22:33 1012 29.88 841 24.83 -24.9 -12.8 66 -29.6 -21.2 -24.52 -0.965
22:34 1012 29.88 841 24.83 -24.9 -12.9 65 -29.6 -21.4 -24.48 -0.964
22:35 1012 29.88 841 24.83 -25 -12.9 66 -29.6 -21.4 -24.53 -0.966
22:36 1012 29.88 841 24.83 -25 -12.9 66 -29.7 -21.4 -24.51 -0.965
22:37 1012 29.88 841 24.83 -25 -12.9 66 -29.7 -21.4 -24.54 -0.966
22:38 1012 29.88 841 24.83 -25 -12.9 66 -29.6 -21.3 -24.48 -0.964
22:39 1012 29.88 841 24.83 -25 -12.9 65 -29.7 -21.5 -24.48 -0.964
22:40 1012 29.88 841 24.83 -24.9 -12.9 66 -29.6 -21.4 -24.49 -0.964
22:41 1012 29.88 841 24.83 -25 -13 66 -29.7 -21.4 -24.55 -0.967
22:42 1012 29.88 841 24.83 -25 -13 65 -29.7 -21.5 -24.6 -0.969
22:43 1012 29.88 841 24.83 -25 -13 65 -29.8 -21.6 -24.67 -0.971
22:44 1012 29.88 841 24.83 -25.1 -13.2 65 -29.8 -21.7 -24.66 -0.971
22:45 1012 29.88 841 24.83 -25.1 -13.1 65 -29.9 -21.8 -24.61 -0.969
22:46 1012 29.88 841 24.83 -25.1 -13.2 65 -29.8 -21.7 -24.68 -0.972
22:47 1012 29.88 841 24.83 -25.2 -13.3 65 -29.9 -21.8 -24.71 -0.973
22:48 1012 29.88 841 24.83 -25.2 -13.3 65 -29.9 -21.8 -24.68 -0.972
22:49 1012 29.88 841 24.83 -25.1 -13.2 65 -29.9 -21.9 -24.67 -0.971
22:50 1012 29.88 841 24.83 -25.1 -13.3 65 -30 -22 -24.74 -0.974
22:51 1012 29.88 841 24.83 -25.2 -13.3 65 -29.9 -21.9 -24.77 -0.975
22:52 1012 29.88 841 24.83 -25.2 -13.3 65 -29.9 -21.8 -24.7 -0.972
22:53 1012 29.88 841 24.83 -25.1 -13.2 65 -29.9 -21.9 -24.66 -0.971
22:54 1012 29.88 841 24.83 -25.1 -13.1 65 -29.9 -21.9 -24.67 -0.971
22:55 1012 29.88 841 24.83 -25.1 -13.1 65 -29.9 -21.9 -24.65 -0.97
22:56 1012 29.88 841 24.83 -25.1 -13.2 64 -30 -22 -24.7 -0.972
22:57 1012 29.88 841 24.83 -25.2 -13.3 65 -30 -22 -24.74 -0.974
22:58 1012 29.88 841 24.83 -25.1 -13.3 65 -29.9 -21.9 -24.7 -0.972
22:59 1012 29.88 841 24.83 -25.1 -13.2 65 -29.9 -21.9 -24.7 -0.972
23:00 1012 29.88 841 24.83 -25.1 -13.2 65 -29.9 -21.9 -24.65 -0.97
23:01 1012 29.88 841 24.83 -25.1 -13.1 65 -29.8 -21.7 -24.55 -0.967
23:02 1012 29.88 841 24.83 -25 -12.9 65 -29.8 -21.7 -24.5 -0.965
23:03 1012 29.88 841 24.83 -24.9 -12.9 64 -29.8 -21.7 -24.48 -0.964
23:04 1012 29.88 841 24.83 -24.9 -12.8 64 -29.9 -21.8 -24.52 -0.965
23:05 1012 29.88 841 24.83 -25 -12.9 64 -29.9 -21.8 -24.56 -0.967
23:06 1012 29.88 841 24.83 -25 -12.9 65 -29.8 -21.6 -24.53 -0.966
23:07 1012 29.88 841 24.83 -24.9 -12.8 64 -29.8 -21.6 -24.46 -0.963
23:08 1012 29.88 841 24.83 -24.9 -12.8 64 -29.8 -21.7 -24.49 -0.964
23:09 1012 29.88 841 24.83 -24.9 -12.8 64 -29.8 -21.7 -24.52 -0.965
23:10 1012 29.88 841 24.83 -25 -13 63 -30.1 -22.1 -24.57 -0.967
23:11 1012 29.88 841 24.83 -25.3 -13.5 63 -30.4 -22.7 -24.84 -0.978
23:12 1012 29.88 841 24.83 -25.7 -14.2 62 -31 -23.8 -25.23 -0.993
23:13 1012 29.88 841 24.83 -26.1 -15 64 -31.1 -23.9 -25.61 -1.008
23:14 1012 29.88 841 24.83 -26.4 -15.6 64 -31.3 -24.3 -25.92 -1.02
23:15 1012 29.88 841 24.83 -26.7 -16.1 65 -31.4 -24.4 -26.18 -1.031
23:16 1012 29.88 841 24.83 -26.9 -16.4 66 -31.4 -24.6 -26.39 -1.039
23:17 1012 29.88 841 24.83 -27 -16.6 67 -31.3 -24.4 -26.49 -1.043
23:18 1012 29.88 841 24.83 -27.1 -16.7 67 -31.4 -24.5 -26.58 -1.046
23:19 1012 29.88 841 24.83 -27.1 -16.7 68 -31.2 -24.2 -26.6 -1.047
23:20 1012 29.88 841 24.83 -27.1 -16.8 68 -31.4 -24.5 -26.65 -1.049
23:21 1012 29.88 841 24.83 -27.1 -16.9 68 -31.4 -24.5 -26.75 -1.053
23:22 1012 29.88 841 24.83 -27.2 -16.9 68 -31.4 -24.5 -26.82 -1.056
23:23 1012 29.88 841 24.83 -27.2 -17 69 -31.4 -24.5 -26.83 -1.056
23:24 1012 29.88 841 24.83 -27.2 -16.9 69 -31.3 -24.3 -26.84 -1.057
23:25 1012 29.88 841 24.83 -27.2 -17 69 -31.3 -24.3 -26.84 -1.057
23:26 1012 29.88 841 24.83 -27.3 -17.1 69 -31.4 -24.5 -26.88 -1.058
23:27 1012 29.88 841 24.83 -27.3 -17.2 68 -31.6 -24.9 -26.91 -1.059
23:28 1012 29.88 841 24.83 -27.5 -17.6 66 -32 -25.7 -27.1 -1.067
23:29 1012 29.88 841 24.83 -27.8 -18 67 -32.2 -25.9 -27.35 -1.077
23:30 1012 29.88 841 24.83 -28 -18.3 67 -32.3 -26.1 -27.55 -1.085
23:31 1012 29.88 841 24.83 -28.2 -18.7 67 -32.6 -26.7 -27.76 -1.093
23:32 1012 29.88 841 24.83 -28.5 -19.2 66 -33 -27.4 -28.01 -1.103
23:33 1012 29.88 841 24.83 -28.6 -19.4 70 -32.4 -26.4 -28.14 -1.108
23:34 1012 29.88 841 24.83 -28.5 -19.2 71 -32.3 -26.1 -28.04 -1.104
23:35 1012 29.88 841 24.83 -28.4 -19.1 71 -32.1 -25.8 -28.04 -1.104
23:36 1012 29.88 841 24.83 -28.3 -19 71 -32.1 -25.8 -27.91 -1.099
23:37 1012 29.88 841 24.83 -28.3 -19 70 -32.3 -26.1 -27.95 -1.1
23:38 1012 29.88 841 24.83 -28.3 -18.9 72 -31.9 -25.4 -27.84 -1.096
23:39 1012 29.88 841 24.83 -28.1 -18.5 70 -31.9 -25.4 -27.71 -1.091
23:40 1012 29.88 841 24.83 -28.1 -18.6 71 -31.9 -25.4 -27.73 -1.092
23:41 1012 29.88 841 24.83 -28.1 -18.5 70 -31.9 -25.5 -27.65 -1.089
23:42 1012 29.88 841 24.83 -28 -18.4 70 -31.8 -25.3 -27.62 -1.087
23:43 1012 29.88 841 24.83 -27.9 -18.3 71 -31.7 -25 -27.58 -1.086
23:44 1012 29.88 841 24.83 -27.9 -18.2 70 -31.8 -25.3 -27.49 -1.082
23:45 1012 29.88 841 24.83 -28 -18.4 68 -32.3 -26.1 -27.62 -1.087
23:46 1012 29.88 841 24.83 -28.3 -18.9 68 -32.5 -26.5 -27.87 -1.097
23:47 1012 29.88 841 24.83 -28.3 -19 70 -32.1 -25.9 -27.94 -1.1
23:48 1012 29.88 841 24.83 -28.3 -18.9 71 -32 -25.6 -27.89 -1.098
23:49 1012 29.88 841 24.83 -28.1 -18.5 72 -31.7 -25.1 -27.7 -1.091
23:50 1012 29.88 841 24.83 -28 -18.3 71 -31.7 -25.1 -27.58 -1.086
23:51 1012 29.88 841 24.83 -27.9 -18.2 71 -31.7 -25.1 -27.52 -1.083
23:52 1012 29.88 841 24.83 -27.9 -18.1 70 -31.7 -25.1 -27.48 -1.082
23:53 1012 29.88 841 24.83 -27.8 -18.1 70 -31.7 -25.1 -27.44 -1.08
23:54 1012 29.88 841 24.83 -27.8 -18 70 -31.6 -24.9 -27.34 -1.076
23:55 1012 29.88 841 24.83 -27.8 -18 69 -31.8 -25.2 -27.35 -1.077
23:56 1012 29.88 841 24.83 -27.8 -18.1 69 -31.8 -25.2 -27.43 -1.08
23:57 1012 29.88 841 24.83 -27.9 -18.1 69 -31.9 -25.5 -27.45 -1.081
23:58 1012 29.88 841 24.83 -28 -18.5 66 -32.5 -26.5 -27.65 -1.089
23:59 1012 29.88 841 24.83 -28.4 -19.1 68 -32.6 -26.7 -28.02 -1.103
24:00 1012 29.88 841 24.83 -28.4 -19.2 70 -32.4 -26.3 -28.04 -1.104